<?xml version="1.0" encoding="UTF-8" standalone="yes"?>
<gpx xmlns="http://www.topografix.com/GPX/1/1" xmlns:gpxx="http://www.garmin.com/xmlschemas/GpxExtensions/v3" xmlns:rcxx="http://www.routeconverter.de/xmlschemas/RouteCatalogExtensions/1.0" xmlns:nmea="http://trekbuddy.net/2009/01/gpx/nmea" version="1.1" creator="Generated by Christian Pesch's RouteConverter. See http://www.routeconverter.de">
    <trk>
        <name>Abstieg</name>
        <trkseg>
            <trkpt lon="10.516898632" lat="47.506899834">
                <ele>1134.493164</ele>
                <time>2006-12-28T10:51:12.000Z</time>
                <name>Position 1</name>
            </trkpt>
            <trkpt lon="10.516834259" lat="47.506878376">
                <ele>1134.493164</ele>
                <time>2006-12-28T10:51:16.000Z</time>
                <name>Position 2</name>
            </trkpt>
            <trkpt lon="10.516684055" lat="47.506856918">
                <ele>1138.338379</ele>
                <time>2006-12-28T10:51:29.000Z</time>
                <name>Position 3</name>
            </trkpt>
            <trkpt lon="10.516555309" lat="47.506856918">
                <ele>1141.702881</ele>
                <time>2006-12-28T10:51:40.000Z</time>
                <name>Position 4</name>
            </trkpt>
            <trkpt lon="10.516555309" lat="47.506878376">
                <ele>1141.702881</ele>
                <time>2006-12-28T10:51:41.000Z</time>
                <name>Position 5</name>
            </trkpt>
            <trkpt lon="10.516448021" lat="47.506921291">
                <ele>1145.067383</ele>
                <time>2006-12-28T10:51:53.000Z</time>
                <name>Position 6</name>
            </trkpt>
            <trkpt lon="10.516340733" lat="47.506964207">
                <ele>1148.432129</ele>
                <time>2006-12-28T10:52:06.000Z</time>
                <name>Position 7</name>
            </trkpt>
            <trkpt lon="10.516211987" lat="47.50702858">
                <ele>1151.316162</ele>
                <time>2006-12-28T10:52:20.000Z</time>
                <name>Position 8</name>
            </trkpt>
            <trkpt lon="10.516083241" lat="47.507092953">
                <ele>1153.719482</ele>
                <time>2006-12-28T10:52:34.000Z</time>
                <name>Position 9</name>
            </trkpt>
            <trkpt lon="10.515975952" lat="47.50711441">
                <ele>1157.083984</ele>
                <time>2006-12-28T10:52:45.000Z</time>
                <name>Position 10</name>
            </trkpt>
            <trkpt lon="10.515975952" lat="47.50711441">
                <ele>1157.083984</ele>
                <time>2006-12-28T10:52:46.000Z</time>
                <name>Position 11</name>
            </trkpt>
            <trkpt lon="10.515890121" lat="47.507178783">
                <ele>1158.525879</ele>
                <time>2006-12-28T10:52:58.000Z</time>
                <name>Position 12</name>
            </trkpt>
            <trkpt lon="10.515825748" lat="47.507286072">
                <ele>1161.409912</ele>
                <time>2006-12-28T10:53:11.000Z</time>
                <name>Position 13</name>
            </trkpt>
            <trkpt lon="10.515782833" lat="47.50739336">
                <ele>1163.33252</ele>
                <time>2006-12-28T10:53:23.000Z</time>
                <name>Position 14</name>
            </trkpt>
            <trkpt lon="10.515782833" lat="47.507479191">
                <ele>1165.736084</ele>
                <time>2006-12-28T10:53:36.000Z</time>
                <name>Position 15</name>
            </trkpt>
            <trkpt lon="10.515761375" lat="47.507607937">
                <ele>1168.619873</ele>
                <time>2006-12-28T10:53:53.000Z</time>
                <name>Position 16</name>
            </trkpt>
            <trkpt lon="10.515739918" lat="47.507715225">
                <ele>1171.984375</ele>
                <time>2006-12-28T10:54:08.000Z</time>
                <name>Position 17</name>
            </trkpt>
            <trkpt lon="10.515697002" lat="47.507865429">
                <ele>1175.348877</ele>
                <time>2006-12-28T10:54:24.000Z</time>
                <name>Position 18</name>
            </trkpt>
            <trkpt lon="10.515675545" lat="47.507886887">
                <ele>1175.348877</ele>
                <time>2006-12-28T10:54:27.000Z</time>
                <name>Position 19</name>
            </trkpt>
            <trkpt lon="10.515675545" lat="47.507929802">
                <ele>1176.310303</ele>
                <time>2006-12-28T10:54:32.000Z</time>
                <name>Position 20</name>
            </trkpt>
            <trkpt lon="10.515654087" lat="47.50795126">
                <ele>1176.791016</ele>
                <time>2006-12-28T10:54:43.000Z</time>
                <name>Position 21</name>
            </trkpt>
            <trkpt lon="10.515654087" lat="47.507972717">
                <ele>1176.791016</ele>
                <time>2006-12-28T10:54:54.000Z</time>
                <name>Position 22</name>
            </trkpt>
            <trkpt lon="10.515675545" lat="47.507994175">
                <ele>1176.791016</ele>
                <time>2006-12-28T10:55:26.000Z</time>
                <name>Position 23</name>
            </trkpt>
            <trkpt lon="10.515632629" lat="47.508058548">
                <ele>1178.23291</ele>
                <time>2006-12-28T10:55:37.000Z</time>
                <name>Position 24</name>
            </trkpt>
            <trkpt lon="10.515632629" lat="47.508165836">
                <ele>1181.597656</ele>
                <time>2006-12-28T10:55:50.000Z</time>
                <name>Position 25</name>
            </trkpt>
            <trkpt lon="10.515611172" lat="47.508251667">
                <ele>1184.481689</ele>
                <time>2006-12-28T10:56:01.000Z</time>
                <name>Position 26</name>
            </trkpt>
            <trkpt lon="10.515546799" lat="47.508358955">
                <ele>1187.365479</ele>
                <time>2006-12-28T10:56:13.000Z</time>
                <name>Position 27</name>
            </trkpt>
            <trkpt lon="10.515525341" lat="47.508401871">
                <ele>1188.807617</ele>
                <time>2006-12-28T10:56:20.000Z</time>
                <name>Position 28</name>
            </trkpt>
            <trkpt lon="10.515482426" lat="47.508509159">
                <ele>1192.172119</ele>
                <time>2006-12-28T10:56:32.000Z</time>
                <name>Position 29</name>
            </trkpt>
            <trkpt lon="10.515482426" lat="47.508637905">
                <ele>1194.575195</ele>
                <time>2006-12-28T10:56:47.000Z</time>
                <name>Position 30</name>
            </trkpt>
            <trkpt lon="10.515482426" lat="47.50868082">
                <ele>1195.055908</ele>
                <time>2006-12-28T10:56:53.000Z</time>
                <name>Position 31</name>
            </trkpt>
            <trkpt lon="10.515503883" lat="47.508766651">
                <ele>1198.420654</ele>
                <time>2006-12-28T10:57:02.000Z</time>
                <name>Position 32</name>
            </trkpt>
            <trkpt lon="10.515482426" lat="47.50887394">
                <ele>1201.7854</ele>
                <time>2006-12-28T10:57:15.000Z</time>
                <name>Position 33</name>
            </trkpt>
            <trkpt lon="10.515460968" lat="47.50895977">
                <ele>1202.746582</ele>
                <time>2006-12-28T10:57:27.000Z</time>
                <name>Position 34</name>
            </trkpt>
            <trkpt lon="10.515460968" lat="47.508981228">
                <ele>1205.149902</ele>
                <time>2006-12-28T10:57:31.000Z</time>
                <name>Position 35</name>
            </trkpt>
            <trkpt lon="10.515460968" lat="47.508981228">
                <ele>1205.149902</ele>
                <time>2006-12-28T10:57:32.000Z</time>
                <name>Position 36</name>
            </trkpt>
            <trkpt lon="10.51535368" lat="47.509067059">
                <ele>1207.07251</ele>
                <time>2006-12-28T10:57:45.000Z</time>
                <name>Position 37</name>
            </trkpt>
            <trkpt lon="10.515310764" lat="47.509174347">
                <ele>1209.47583</ele>
                <time>2006-12-28T10:57:57.000Z</time>
                <name>Position 38</name>
            </trkpt>
            <trkpt lon="10.515267849" lat="47.50923872">
                <ele>1209.956299</ele>
                <time>2006-12-28T10:58:04.000Z</time>
                <name>Position 39</name>
            </trkpt>
            <trkpt lon="10.515246391" lat="47.509367466">
                <ele>1212.840576</ele>
                <time>2006-12-28T10:58:19.000Z</time>
                <name>Position 40</name>
            </trkpt>
            <trkpt lon="10.515246391" lat="47.509474754">
                <ele>1214.763184</ele>
                <time>2006-12-28T10:58:32.000Z</time>
                <name>Position 41</name>
            </trkpt>
            <trkpt lon="10.515203476" lat="47.509560585">
                <ele>1216.685791</ele>
                <time>2006-12-28T10:58:44.000Z</time>
                <name>Position 42</name>
            </trkpt>
            <trkpt lon="10.515182018" lat="47.509667873">
                <ele>1219.569824</ele>
                <time>2006-12-28T10:58:58.000Z</time>
                <name>Position 43</name>
            </trkpt>
            <trkpt lon="10.515182018" lat="47.509796619">
                <ele>1220.531006</ele>
                <time>2006-12-28T10:59:12.000Z</time>
                <name>Position 44</name>
            </trkpt>
            <trkpt lon="10.515117645" lat="47.509903908">
                <ele>1223.895508</ele>
                <time>2006-12-28T10:59:25.000Z</time>
                <name>Position 45</name>
            </trkpt>
            <trkpt lon="10.515053272" lat="47.509989738">
                <ele>1226.298828</ele>
                <time>2006-12-28T10:59:40.000Z</time>
                <name>Position 46</name>
            </trkpt>
            <trkpt lon="10.515010357" lat="47.510054111">
                <ele>1228.22168</ele>
                <time>2006-12-28T10:59:51.000Z</time>
                <name>Position 47</name>
            </trkpt>
            <trkpt lon="10.514945984" lat="47.510139942">
                <ele>1231.105713</ele>
                <time>2006-12-28T11:00:03.000Z</time>
                <name>Position 48</name>
            </trkpt>
            <trkpt lon="10.514903069" lat="47.510225773">
                <ele>1234.470215</ele>
                <time>2006-12-28T11:00:15.000Z</time>
                <name>Position 49</name>
            </trkpt>
            <trkpt lon="10.514838696" lat="47.510333061">
                <ele>1236.392822</ele>
                <time>2006-12-28T11:00:31.000Z</time>
                <name>Position 50</name>
            </trkpt>
            <trkpt lon="10.514774323" lat="47.510418892">
                <ele>1239.757324</ele>
                <time>2006-12-28T11:00:43.000Z</time>
                <name>Position 51</name>
            </trkpt>
            <trkpt lon="10.514688492" lat="47.510504723">
                <ele>1241.679932</ele>
                <time>2006-12-28T11:00:56.000Z</time>
                <name>Position 52</name>
            </trkpt>
            <trkpt lon="10.514731407" lat="47.510590553">
                <ele>1243.602539</ele>
                <time>2006-12-28T11:01:07.000Z</time>
                <name>Position 53</name>
            </trkpt>
            <trkpt lon="10.514731407" lat="47.510697842">
                <ele>1245.044678</ele>
                <time>2006-12-28T11:01:19.000Z</time>
                <name>Position 54</name>
            </trkpt>
            <trkpt lon="10.514667034" lat="47.51080513">
                <ele>1247.928711</ele>
                <time>2006-12-28T11:01:32.000Z</time>
                <name>Position 55</name>
            </trkpt>
            <trkpt lon="10.514667034" lat="47.510869503">
                <ele>1249.851318</ele>
                <time>2006-12-28T11:01:43.000Z</time>
                <name>Position 56</name>
            </trkpt>
            <trkpt lon="10.514709949" lat="47.510933876">
                <ele>1252.254395</ele>
                <time>2006-12-28T11:01:49.000Z</time>
                <name>Position 57</name>
            </trkpt>
            <trkpt lon="10.514731407" lat="47.510976791">
                <ele>1253.696533</ele>
                <time>2006-12-28T11:01:55.000Z</time>
                <name>Position 58</name>
            </trkpt>
            <trkpt lon="10.514817238" lat="47.511041164">
                <ele>1254.657715</ele>
                <time>2006-12-28T11:02:07.000Z</time>
                <name>Position 59</name>
            </trkpt>
            <trkpt lon="10.514817238" lat="47.511126995">
                <ele>1256.580322</ele>
                <time>2006-12-28T11:02:16.000Z</time>
                <name>Position 60</name>
            </trkpt>
            <trkpt lon="10.514860153" lat="47.511191368">
                <ele>1258.50293</ele>
                <time>2006-12-28T11:02:25.000Z</time>
                <name>Position 61</name>
            </trkpt>
            <trkpt lon="10.514903069" lat="47.511277199">
                <ele>1261.86792</ele>
                <time>2006-12-28T11:02:37.000Z</time>
                <name>Position 62</name>
            </trkpt>
            <trkpt lon="10.514924526" lat="47.511384487">
                <ele>1263.790283</ele>
                <time>2006-12-28T11:02:49.000Z</time>
                <name>Position 63</name>
            </trkpt>
            <trkpt lon="10.514967442" lat="47.511491776">
                <ele>1266.193604</ele>
                <time>2006-12-28T11:03:05.000Z</time>
                <name>Position 64</name>
            </trkpt>
            <trkpt lon="10.515010357" lat="47.511599064">
                <ele>1268.596924</ele>
                <time>2006-12-28T11:03:19.000Z</time>
                <name>Position 65</name>
            </trkpt>
            <trkpt lon="10.51507473" lat="47.511684895">
                <ele>1271.480713</ele>
                <time>2006-12-28T11:03:33.000Z</time>
                <name>Position 66</name>
            </trkpt>
            <trkpt lon="10.515053272" lat="47.51172781">
                <ele>1274.364746</ele>
                <time>2006-12-28T11:03:40.000Z</time>
                <name>Position 67</name>
            </trkpt>
            <trkpt lon="10.515096188" lat="47.511770725">
                <ele>1275.806641</ele>
                <time>2006-12-28T11:03:46.000Z</time>
                <name>Position 68</name>
            </trkpt>
            <trkpt lon="10.515160561" lat="47.511835098">
                <ele>1278.210205</ele>
                <time>2006-12-28T11:04:00.000Z</time>
                <name>Position 69</name>
            </trkpt>
            <trkpt lon="10.515160561" lat="47.511878014">
                <ele>1280.132813</ele>
                <time>2006-12-28T11:04:06.000Z</time>
                <name>Position 70</name>
            </trkpt>
            <trkpt lon="10.515203476" lat="47.511920929">
                <ele>1282.05542</ele>
                <time>2006-12-28T11:04:14.000Z</time>
                <name>Position 71</name>
            </trkpt>
            <trkpt lon="10.515224934" lat="47.511985302">
                <ele>1284.939453</ele>
                <time>2006-12-28T11:04:26.000Z</time>
                <name>Position 72</name>
            </trkpt>
            <trkpt lon="10.515246391" lat="47.512028217">
                <ele>1285.419922</ele>
                <time>2006-12-28T11:04:34.000Z</time>
                <name>Position 73</name>
            </trkpt>
            <trkpt lon="10.515289307" lat="47.512156963">
                <ele>1287.342529</ele>
                <time>2006-12-28T11:04:49.000Z</time>
                <name>Position 74</name>
            </trkpt>
            <trkpt lon="10.515289307" lat="47.512178421">
                <ele>1288.784668</ele>
                <time>2006-12-28T11:04:52.000Z</time>
                <name>Position 75</name>
            </trkpt>
            <trkpt lon="10.515375137" lat="47.512264252">
                <ele>1292.149414</ele>
                <time>2006-12-28T11:05:03.000Z</time>
                <name>Position 76</name>
            </trkpt>
            <trkpt lon="10.515375137" lat="47.512328625">
                <ele>1292.630127</ele>
                <time>2006-12-28T11:05:15.000Z</time>
                <name>Position 77</name>
            </trkpt>
            <trkpt lon="10.51543951" lat="47.51237154">
                <ele>1295.513916</ele>
                <time>2006-12-28T11:05:25.000Z</time>
                <name>Position 78</name>
            </trkpt>
            <trkpt lon="10.515460968" lat="47.512457371">
                <ele>1299.359131</ele>
                <time>2006-12-28T11:05:38.000Z</time>
                <name>Position 79</name>
            </trkpt>
            <trkpt lon="10.51543951" lat="47.512521744">
                <ele>1301.281738</ele>
                <time>2006-12-28T11:05:48.000Z</time>
                <name>Position 80</name>
            </trkpt>
            <trkpt lon="10.515460968" lat="47.512586117">
                <ele>1304.64624</ele>
                <time>2006-12-28T11:05:56.000Z</time>
                <name>Position 81</name>
            </trkpt>
            <trkpt lon="10.51543951" lat="47.512693405">
                <ele>1306.568848</ele>
                <time>2006-12-28T11:06:09.000Z</time>
                <name>Position 82</name>
            </trkpt>
            <trkpt lon="10.515460968" lat="47.512757778">
                <ele>1309.453125</ele>
                <time>2006-12-28T11:06:20.000Z</time>
                <name>Position 83</name>
            </trkpt>
            <trkpt lon="10.515418053" lat="47.512822151">
                <ele>1312.817627</ele>
                <time>2006-12-28T11:06:28.000Z</time>
                <name>Position 84</name>
            </trkpt>
            <trkpt lon="10.515418053" lat="47.512822151">
                <ele>1312.817627</ele>
                <time>2006-12-28T11:06:29.000Z</time>
                <name>Position 85</name>
            </trkpt>
            <trkpt lon="10.515375137" lat="47.512886524">
                <ele>1314.740234</ele>
                <time>2006-12-28T11:06:42.000Z</time>
                <name>Position 86</name>
            </trkpt>
            <trkpt lon="10.515310764" lat="47.512950897">
                <ele>1316.182129</ele>
                <time>2006-12-28T11:06:52.000Z</time>
                <name>Position 87</name>
            </trkpt>
            <trkpt lon="10.515267849" lat="47.512993813">
                <ele>1318.104736</ele>
                <time>2006-12-28T11:07:02.000Z</time>
                <name>Position 88</name>
            </trkpt>
            <trkpt lon="10.515267849" lat="47.513079643">
                <ele>1320.98877</ele>
                <time>2006-12-28T11:07:14.000Z</time>
                <name>Position 89</name>
            </trkpt>
            <trkpt lon="10.515310764" lat="47.513101101">
                <ele>1323.39209</ele>
                <time>2006-12-28T11:07:23.000Z</time>
                <name>Position 90</name>
            </trkpt>
            <trkpt lon="10.515396595" lat="47.513144016">
                <ele>1325.79541</ele>
                <time>2006-12-28T11:07:34.000Z</time>
                <name>Position 91</name>
            </trkpt>
            <trkpt lon="10.515460968" lat="47.513165474">
                <ele>1329.159912</ele>
                <time>2006-12-28T11:07:46.000Z</time>
                <name>Position 92</name>
            </trkpt>
            <trkpt lon="10.515482426" lat="47.513229847">
                <ele>1331.082764</ele>
                <time>2006-12-28T11:07:58.000Z</time>
                <name>Position 93</name>
            </trkpt>
            <trkpt lon="10.51543951" lat="47.513272762">
                <ele>1332.524658</ele>
                <time>2006-12-28T11:08:07.000Z</time>
                <name>Position 94</name>
            </trkpt>
            <trkpt lon="10.515418053" lat="47.513315678">
                <ele>1335.408447</ele>
                <time>2006-12-28T11:08:16.000Z</time>
                <name>Position 95</name>
            </trkpt>
            <trkpt lon="10.515418053" lat="47.513358593">
                <ele>1336.850342</ele>
                <time>2006-12-28T11:08:27.000Z</time>
                <name>Position 96</name>
            </trkpt>
            <trkpt lon="10.515460968" lat="47.513401508">
                <ele>1339.734375</ele>
                <time>2006-12-28T11:08:37.000Z</time>
                <name>Position 97</name>
            </trkpt>
            <trkpt lon="10.515482426" lat="47.513444424">
                <ele>1341.176514</ele>
                <time>2006-12-28T11:08:45.000Z</time>
                <name>Position 98</name>
            </trkpt>
            <trkpt lon="10.515525341" lat="47.513508797">
                <ele>1344.060547</ele>
                <time>2006-12-28T11:08:57.000Z</time>
                <name>Position 99</name>
            </trkpt>
            <trkpt lon="10.515589714" lat="47.513594627">
                <ele>1345.983154</ele>
                <time>2006-12-28T11:09:10.000Z</time>
                <name>Position 100</name>
            </trkpt>
            <trkpt lon="10.515611172" lat="47.513594627">
                <ele>1347.425049</ele>
                <time>2006-12-28T11:09:12.000Z</time>
                <name>Position 101</name>
            </trkpt>
            <trkpt lon="10.515654087" lat="47.513659">
                <ele>1348.866943</ele>
                <time>2006-12-28T11:09:22.000Z</time>
                <name>Position 102</name>
            </trkpt>
            <trkpt lon="10.51571846" lat="47.513744831">
                <ele>1351.750977</ele>
                <time>2006-12-28T11:09:32.000Z</time>
                <name>Position 103</name>
            </trkpt>
            <trkpt lon="10.515761375" lat="47.513809204">
                <ele>1354.634766</ele>
                <time>2006-12-28T11:09:43.000Z</time>
                <name>Position 104</name>
            </trkpt>
            <trkpt lon="10.515825748" lat="47.51393795">
                <ele>1357.519043</ele>
                <time>2006-12-28T11:09:59.000Z</time>
                <name>Position 105</name>
            </trkpt>
            <trkpt lon="10.515825748" lat="47.514088154">
                <ele>1357.519043</ele>
                <time>2006-12-28T11:10:14.000Z</time>
                <name>Position 106</name>
            </trkpt>
            <trkpt lon="10.515804291" lat="47.514109612">
                <ele>1357.999756</ele>
                <time>2006-12-28T11:10:17.000Z</time>
                <name>Position 107</name>
            </trkpt>
            <trkpt lon="10.515761375" lat="47.514195442">
                <ele>1360.402832</ele>
                <time>2006-12-28T11:10:31.000Z</time>
                <name>Position 108</name>
            </trkpt>
            <trkpt lon="10.51571846" lat="47.514281273">
                <ele>1363.286865</ele>
                <time>2006-12-28T11:10:44.000Z</time>
                <name>Position 109</name>
            </trkpt>
            <trkpt lon="10.515739918" lat="47.514324188">
                <ele>1364.72876</ele>
                <time>2006-12-28T11:10:51.000Z</time>
                <name>Position 110</name>
            </trkpt>
            <trkpt lon="10.515697002" lat="47.514388561">
                <ele>1367.13208</ele>
                <time>2006-12-28T11:11:04.000Z</time>
                <name>Position 111</name>
            </trkpt>
            <trkpt lon="10.515675545" lat="47.514474392">
                <ele>1369.5354</ele>
                <time>2006-12-28T11:11:15.000Z</time>
                <name>Position 112</name>
            </trkpt>
            <trkpt lon="10.515632629" lat="47.514517307">
                <ele>1372.900146</ele>
                <time>2006-12-28T11:11:23.000Z</time>
                <name>Position 113</name>
            </trkpt>
            <trkpt lon="10.515589714" lat="47.514560223">
                <ele>1375.303223</ele>
                <time>2006-12-28T11:11:33.000Z</time>
                <name>Position 114</name>
            </trkpt>
            <trkpt lon="10.515568256" lat="47.514624596">
                <ele>1376.264648</ele>
                <time>2006-12-28T11:11:42.000Z</time>
                <name>Position 115</name>
            </trkpt>
            <trkpt lon="10.515525341" lat="47.514688969">
                <ele>1378.667969</ele>
                <time>2006-12-28T11:11:53.000Z</time>
                <name>Position 116</name>
            </trkpt>
            <trkpt lon="10.515503883" lat="47.514753342">
                <ele>1381.551758</ele>
                <time>2006-12-28T11:12:03.000Z</time>
                <name>Position 117</name>
            </trkpt>
            <trkpt lon="10.515482426" lat="47.514796257">
                <ele>1382.993652</ele>
                <time>2006-12-28T11:12:14.000Z</time>
                <name>Position 118</name>
            </trkpt>
            <trkpt lon="10.515460968" lat="47.514817715">
                <ele>1384.916504</ele>
                <time>2006-12-28T11:12:24.000Z</time>
                <name>Position 119</name>
            </trkpt>
            <trkpt lon="10.515460968" lat="47.514839172">
                <ele>1384.916504</ele>
                <time>2006-12-28T11:12:50.000Z</time>
                <name>Position 120</name>
            </trkpt>
            <trkpt lon="10.515482426" lat="47.51486063">
                <ele>1385.396973</ele>
                <time>2006-12-28T11:13:17.000Z</time>
                <name>Position 121</name>
            </trkpt>
            <trkpt lon="10.515503883" lat="47.514882088">
                <ele>1386.838867</ele>
                <time>2006-12-28T11:13:28.000Z</time>
                <name>Position 122</name>
            </trkpt>
            <trkpt lon="10.515460968" lat="47.514903545">
                <ele>1386.838867</ele>
                <time>2006-12-28T11:13:43.000Z</time>
                <name>Position 123</name>
            </trkpt>
            <trkpt lon="10.515375137" lat="47.514925003">
                <ele>1389.242432</ele>
                <time>2006-12-28T11:13:53.000Z</time>
                <name>Position 124</name>
            </trkpt>
            <trkpt lon="10.515375137" lat="47.514967918">
                <ele>1391.165039</ele>
                <time>2006-12-28T11:14:01.000Z</time>
                <name>Position 125</name>
            </trkpt>
            <trkpt lon="10.515396595" lat="47.514989376">
                <ele>1391.645752</ele>
                <time>2006-12-28T11:14:05.000Z</time>
                <name>Position 126</name>
            </trkpt>
            <trkpt lon="10.515418053" lat="47.515075207">
                <ele>1394.529541</ele>
                <time>2006-12-28T11:14:18.000Z</time>
                <name>Position 127</name>
            </trkpt>
            <trkpt lon="10.51535368" lat="47.51513958">
                <ele>1396.452393</ele>
                <time>2006-12-28T11:14:29.000Z</time>
                <name>Position 128</name>
            </trkpt>
            <trkpt lon="10.515332222" lat="47.515203953">
                <ele>1398.855469</ele>
                <time>2006-12-28T11:14:42.000Z</time>
                <name>Position 129</name>
            </trkpt>
            <trkpt lon="10.515246391" lat="47.51522541">
                <ele>1401.258789</ele>
                <time>2006-12-28T11:14:53.000Z</time>
                <name>Position 130</name>
            </trkpt>
            <trkpt lon="10.515203476" lat="47.515311241">
                <ele>1402.700684</ele>
                <time>2006-12-28T11:15:05.000Z</time>
                <name>Position 131</name>
            </trkpt>
            <trkpt lon="10.515139103" lat="47.515332699">
                <ele>1404.143066</ele>
                <time>2006-12-28T11:15:16.000Z</time>
                <name>Position 132</name>
            </trkpt>
            <trkpt lon="10.51507473" lat="47.515375614">
                <ele>1407.988281</ele>
                <time>2006-12-28T11:15:27.000Z</time>
                <name>Position 133</name>
            </trkpt>
            <trkpt lon="10.514967442" lat="47.515397072">
                <ele>1410.391357</ele>
                <time>2006-12-28T11:15:40.000Z</time>
                <name>Position 134</name>
            </trkpt>
            <trkpt lon="10.514924526" lat="47.515461445">
                <ele>1412.794678</ele>
                <time>2006-12-28T11:15:51.000Z</time>
                <name>Position 135</name>
            </trkpt>
            <trkpt lon="10.514881611" lat="47.51550436">
                <ele>1415.197998</ele>
                <time>2006-12-28T11:16:02.000Z</time>
                <name>Position 136</name>
            </trkpt>
            <trkpt lon="10.514731407" lat="47.51550436">
                <ele>1417.601074</ele>
                <time>2006-12-28T11:16:14.000Z</time>
                <name>Position 137</name>
            </trkpt>
            <trkpt lon="10.514645576" lat="47.515547276">
                <ele>1420.004639</ele>
                <time>2006-12-28T11:16:26.000Z</time>
                <name>Position 138</name>
            </trkpt>
            <trkpt lon="10.514624119" lat="47.515568733">
                <ele>1421.927246</ele>
                <time>2006-12-28T11:16:33.000Z</time>
                <name>Position 139</name>
            </trkpt>
            <trkpt lon="10.514538288" lat="47.515611649">
                <ele>1424.811279</ele>
                <time>2006-12-28T11:16:44.000Z</time>
                <name>Position 140</name>
            </trkpt>
            <trkpt lon="10.514473915" lat="47.515633106">
                <ele>1426.253174</ele>
                <time>2006-12-28T11:16:54.000Z</time>
                <name>Position 141</name>
            </trkpt>
            <trkpt lon="10.514431" lat="47.515697479">
                <ele>1429.136963</ele>
                <time>2006-12-28T11:17:06.000Z</time>
                <name>Position 142</name>
            </trkpt>
            <trkpt lon="10.514452457" lat="47.515718937">
                <ele>1430.579102</ele>
                <time>2006-12-28T11:17:11.000Z</time>
                <name>Position 143</name>
            </trkpt>
            <trkpt lon="10.514452457" lat="47.515740395">
                <ele>1432.501709</ele>
                <time>2006-12-28T11:17:22.000Z</time>
                <name>Position 144</name>
            </trkpt>
            <trkpt lon="10.514431" lat="47.515826225">
                <ele>1433.943604</ele>
                <time>2006-12-28T11:17:35.000Z</time>
                <name>Position 145</name>
            </trkpt>
            <trkpt lon="10.514409542" lat="47.515933514">
                <ele>1436.347168</ele>
                <time>2006-12-28T11:17:48.000Z</time>
                <name>Position 146</name>
            </trkpt>
            <trkpt lon="10.514366627" lat="47.515997887">
                <ele>1438.750488</ele>
                <time>2006-12-28T11:18:01.000Z</time>
                <name>Position 147</name>
            </trkpt>
            <trkpt lon="10.514366627" lat="47.51606226">
                <ele>1441.153564</ele>
                <time>2006-12-28T11:18:11.000Z</time>
                <name>Position 148</name>
            </trkpt>
            <trkpt lon="10.514366627" lat="47.51614809">
                <ele>1443.556885</ele>
                <time>2006-12-28T11:18:23.000Z</time>
                <name>Position 149</name>
            </trkpt>
            <trkpt lon="10.514366627" lat="47.516233921">
                <ele>1446.440918</ele>
                <time>2006-12-28T11:18:36.000Z</time>
                <name>Position 150</name>
            </trkpt>
            <trkpt lon="10.514409542" lat="47.516298294">
                <ele>1448.843994</ele>
                <time>2006-12-28T11:18:46.000Z</time>
                <name>Position 151</name>
            </trkpt>
            <trkpt lon="10.514388084" lat="47.516362667">
                <ele>1450.766602</ele>
                <time>2006-12-28T11:18:57.000Z</time>
                <name>Position 152</name>
            </trkpt>
            <trkpt lon="10.514280796" lat="47.516448498">
                <ele>1453.170166</ele>
                <time>2006-12-28T11:19:11.000Z</time>
                <name>Position 153</name>
            </trkpt>
            <trkpt lon="10.514259338" lat="47.516469955">
                <ele>1454.612061</ele>
                <time>2006-12-28T11:19:13.000Z</time>
                <name>Position 154</name>
            </trkpt>
            <trkpt lon="10.514194965" lat="47.516512871">
                <ele>1455.573486</ele>
                <time>2006-12-28T11:19:23.000Z</time>
                <name>Position 155</name>
            </trkpt>
            <trkpt lon="10.514130592" lat="47.516577244">
                <ele>1458.937988</ele>
                <time>2006-12-28T11:19:34.000Z</time>
                <name>Position 156</name>
            </trkpt>
            <trkpt lon="10.514066219" lat="47.516620159">
                <ele>1460.860596</ele>
                <time>2006-12-28T11:19:42.000Z</time>
                <name>Position 157</name>
            </trkpt>
            <trkpt lon="10.514001846" lat="47.51670599">
                <ele>1462.30249</ele>
                <time>2006-12-28T11:19:56.000Z</time>
                <name>Position 158</name>
            </trkpt>
            <trkpt lon="10.513958931" lat="47.516727448">
                <ele>1463.263916</ele>
                <time>2006-12-28T11:20:00.000Z</time>
                <name>Position 159</name>
            </trkpt>
            <trkpt lon="10.513980389" lat="47.516813278">
                <ele>1463.744385</ele>
                <time>2006-12-28T11:20:08.000Z</time>
                <name>Position 160</name>
            </trkpt>
            <trkpt lon="10.513916016" lat="47.516920567">
                <ele>1465.667236</ele>
                <time>2006-12-28T11:20:22.000Z</time>
                <name>Position 161</name>
            </trkpt>
            <trkpt lon="10.5138731" lat="47.51707077">
                <ele>1467.109131</ele>
                <time>2006-12-28T11:20:37.000Z</time>
                <name>Position 162</name>
            </trkpt>
            <trkpt lon="10.5138731" lat="47.517156601">
                <ele>1470.473877</ele>
                <time>2006-12-28T11:20:46.000Z</time>
                <name>Position 163</name>
            </trkpt>
            <trkpt lon="10.513830185" lat="47.517178059">
                <ele>1470.95459</ele>
                <time>2006-12-28T11:20:52.000Z</time>
                <name>Position 164</name>
            </trkpt>
            <trkpt lon="10.51378727" lat="47.517263889">
                <ele>1474.319092</ele>
                <time>2006-12-28T11:21:06.000Z</time>
                <name>Position 165</name>
            </trkpt>
            <trkpt lon="10.513808727" lat="47.517263889">
                <ele>1475.280273</ele>
                <time>2006-12-28T11:21:23.000Z</time>
                <name>Position 166</name>
            </trkpt>
            <trkpt lon="10.513808727" lat="47.517306805">
                <ele>1474.799805</ele>
                <time>2006-12-28T11:21:40.000Z</time>
                <name>Position 167</name>
            </trkpt>
            <trkpt lon="10.51378727" lat="47.517328262">
                <ele>1474.799805</ele>
                <time>2006-12-28T11:23:29.000Z</time>
                <name>Position 168</name>
            </trkpt>
            <trkpt lon="10.51378727" lat="47.517371178">
                <ele>1474.799805</ele>
                <time>2006-12-28T11:23:50.000Z</time>
                <name>Position 169</name>
            </trkpt>
            <trkpt lon="10.513701439" lat="47.517435551">
                <ele>1475.760986</ele>
                <time>2006-12-28T11:24:06.000Z</time>
                <name>Position 170</name>
            </trkpt>
            <trkpt lon="10.513701439" lat="47.517478466">
                <ele>1476.241699</ele>
                <time>2006-12-28T11:24:13.000Z</time>
                <name>Position 171</name>
            </trkpt>
            <trkpt lon="10.513722897" lat="47.517564297">
                <ele>1477.683594</ele>
                <time>2006-12-28T11:24:27.000Z</time>
                <name>Position 172</name>
            </trkpt>
            <trkpt lon="10.513722897" lat="47.517650127">
                <ele>1480.567627</ele>
                <time>2006-12-28T11:24:37.000Z</time>
                <name>Position 173</name>
            </trkpt>
            <trkpt lon="10.513637066" lat="47.517693043">
                <ele>1483.932129</ele>
                <time>2006-12-28T11:24:48.000Z</time>
                <name>Position 174</name>
            </trkpt>
            <trkpt lon="10.513637066" lat="47.517735958">
                <ele>1484.893799</ele>
                <time>2006-12-28T11:24:58.000Z</time>
                <name>Position 175</name>
            </trkpt>
            <trkpt lon="10.513701439" lat="47.517821789">
                <ele>1488.258301</ele>
                <time>2006-12-28T11:25:11.000Z</time>
                <name>Position 176</name>
            </trkpt>
            <trkpt lon="10.513722897" lat="47.517864704">
                <ele>1490.661377</ele>
                <time>2006-12-28T11:25:19.000Z</time>
                <name>Position 177</name>
            </trkpt>
            <trkpt lon="10.513765812" lat="47.517907619">
                <ele>1492.584229</ele>
                <time>2006-12-28T11:25:29.000Z</time>
                <name>Position 178</name>
            </trkpt>
            <trkpt lon="10.513701439" lat="47.517950535">
                <ele>1495.468018</ele>
                <time>2006-12-28T11:25:40.000Z</time>
                <name>Position 179</name>
            </trkpt>
            <trkpt lon="10.513615608" lat="47.518057823">
                <ele>1498.83252</ele>
                <time>2006-12-28T11:26:05.000Z</time>
                <name>Position 180</name>
            </trkpt>
            <trkpt lon="10.513658524" lat="47.518122196">
                <ele>1501.716797</ele>
                <time>2006-12-28T11:26:19.000Z</time>
                <name>Position 181</name>
            </trkpt>
            <trkpt lon="10.513722897" lat="47.518165112">
                <ele>1505.081299</ele>
                <time>2006-12-28T11:26:29.000Z</time>
                <name>Position 182</name>
            </trkpt>
            <trkpt lon="10.513808727" lat="47.518250942">
                <ele>1507.965332</ele>
                <time>2006-12-28T11:26:44.000Z</time>
                <name>Position 183</name>
            </trkpt>
            <trkpt lon="10.513808727" lat="47.518293858">
                <ele>1510.368408</ele>
                <time>2006-12-28T11:26:55.000Z</time>
                <name>Position 184</name>
            </trkpt>
            <trkpt lon="10.513830185" lat="47.518336773">
                <ele>1513.73291</ele>
                <time>2006-12-28T11:27:11.000Z</time>
                <name>Position 185</name>
            </trkpt>
            <trkpt lon="10.513830185" lat="47.518315315">
                <ele>1514.694336</ele>
                <time>2006-12-28T11:27:25.000Z</time>
                <name>Position 186</name>
            </trkpt>
            <trkpt lon="10.5138731" lat="47.518293858">
                <ele>1518.059082</ele>
                <time>2006-12-28T11:27:37.000Z</time>
                <name>Position 187</name>
            </trkpt>
            <trkpt lon="10.513958931" lat="47.518293858">
                <ele>1521.423584</ele>
                <time>2006-12-28T11:27:58.000Z</time>
                <name>Position 188</name>
            </trkpt>
            <trkpt lon="10.513958931" lat="47.518336773">
                <ele>1524.78833</ele>
                <time>2006-12-28T11:28:15.000Z</time>
                <name>Position 189</name>
            </trkpt>
            <trkpt lon="10.513851643" lat="47.518465519">
                <ele>1528.152832</ele>
                <time>2006-12-28T11:28:28.000Z</time>
                <name>Position 190</name>
            </trkpt>
            <trkpt lon="10.5138731" lat="47.518572807">
                <ele>1530.556152</ele>
                <time>2006-12-28T11:28:42.000Z</time>
                <name>Position 191</name>
            </trkpt>
            <trkpt lon="10.513830185" lat="47.51863718">
                <ele>1533.920898</ele>
                <time>2006-12-28T11:28:54.000Z</time>
                <name>Position 192</name>
            </trkpt>
            <trkpt lon="10.513894558" lat="47.518701553">
                <ele>1534.882324</ele>
                <time>2006-12-28T11:29:08.000Z</time>
                <name>Position 193</name>
            </trkpt>
            <trkpt lon="10.513916016" lat="47.518765926">
                <ele>1537.2854</ele>
                <time>2006-12-28T11:29:18.000Z</time>
                <name>Position 194</name>
            </trkpt>
            <trkpt lon="10.513958931" lat="47.518830299">
                <ele>1540.169434</ele>
                <time>2006-12-28T11:29:32.000Z</time>
                <name>Position 195</name>
            </trkpt>
            <trkpt lon="10.513958931" lat="47.51891613">
                <ele>1544.014648</ele>
                <time>2006-12-28T11:29:43.000Z</time>
                <name>Position 196</name>
            </trkpt>
            <trkpt lon="10.513937473" lat="47.519023418">
                <ele>1547.37915</ele>
                <time>2006-12-28T11:30:03.000Z</time>
                <name>Position 197</name>
            </trkpt>
            <trkpt lon="10.513916016" lat="47.519066334">
                <ele>1550.263428</ele>
                <time>2006-12-28T11:30:13.000Z</time>
                <name>Position 198</name>
            </trkpt>
            <trkpt lon="10.513830185" lat="47.519130707">
                <ele>1551.224609</ele>
                <time>2006-12-28T11:30:25.000Z</time>
                <name>Position 199</name>
            </trkpt>
            <trkpt lon="10.51378727" lat="47.519152164">
                <ele>1554.589111</ele>
                <time>2006-12-28T11:30:35.000Z</time>
                <name>Position 200</name>
            </trkpt>
            <trkpt lon="10.513722897" lat="47.519237995">
                <ele>1557.953857</ele>
                <time>2006-12-28T11:30:51.000Z</time>
                <name>Position 201</name>
            </trkpt>
            <trkpt lon="10.513701439" lat="47.519259453">
                <ele>1559.395752</ele>
                <time>2006-12-28T11:31:03.000Z</time>
                <name>Position 202</name>
            </trkpt>
            <trkpt lon="10.513658524" lat="47.519302368">
                <ele>1562.760254</ele>
                <time>2006-12-28T11:31:13.000Z</time>
                <name>Position 203</name>
            </trkpt>
            <trkpt lon="10.513637066" lat="47.519366741">
                <ele>1566.125</ele>
                <time>2006-12-28T11:31:37.000Z</time>
                <name>Position 204</name>
            </trkpt>
            <trkpt lon="10.513572693" lat="47.519388199">
                <ele>1569.009033</ele>
                <time>2006-12-28T11:31:51.000Z</time>
                <name>Position 205</name>
            </trkpt>
            <trkpt lon="10.513551235" lat="47.519431114">
                <ele>1572.373535</ele>
                <time>2006-12-28T11:32:13.000Z</time>
                <name>Position 206</name>
            </trkpt>
            <trkpt lon="10.513637066" lat="47.519452572">
                <ele>1574.776855</ele>
                <time>2006-12-28T11:32:28.000Z</time>
                <name>Position 207</name>
            </trkpt>
            <trkpt lon="10.513744354" lat="47.519495487">
                <ele>1578.141357</ele>
                <time>2006-12-28T11:32:44.000Z</time>
                <name>Position 208</name>
            </trkpt>
            <trkpt lon="10.513894558" lat="47.519516945">
                <ele>1581.506104</ele>
                <time>2006-12-28T11:32:57.000Z</time>
                <name>Position 209</name>
            </trkpt>
            <trkpt lon="10.514087677" lat="47.519538403">
                <ele>1585.351318</ele>
                <time>2006-12-28T11:33:11.000Z</time>
                <name>Position 210</name>
            </trkpt>
            <trkpt lon="10.514194965" lat="47.519516945">
                <ele>1585.351318</ele>
                <time>2006-12-28T11:33:17.000Z</time>
                <name>Position 211</name>
            </trkpt>
            <trkpt lon="10.514388084" lat="47.519516945">
                <ele>1587.754639</ele>
                <time>2006-12-28T11:33:32.000Z</time>
                <name>Position 212</name>
            </trkpt>
            <trkpt lon="10.514431" lat="47.519516945">
                <ele>1589.196533</ele>
                <time>2006-12-28T11:33:35.000Z</time>
                <name>Position 213</name>
            </trkpt>
            <trkpt lon="10.514624119" lat="47.51955986">
                <ele>1592.080566</ele>
                <time>2006-12-28T11:33:49.000Z</time>
                <name>Position 214</name>
            </trkpt>
            <trkpt lon="10.51479578" lat="47.519516945">
                <ele>1595.445068</ele>
                <time>2006-12-28T11:34:04.000Z</time>
                <name>Position 215</name>
            </trkpt>
            <trkpt lon="10.514903069" lat="47.519495487">
                <ele>1598.329102</ele>
                <time>2006-12-28T11:34:25.000Z</time>
                <name>Position 216</name>
            </trkpt>
            <trkpt lon="10.514945984" lat="47.519538403">
                <ele>1600.251953</ele>
                <time>2006-12-28T11:34:36.000Z</time>
                <name>Position 217</name>
            </trkpt>
            <trkpt lon="10.51479578" lat="47.519602776">
                <ele>1601.213135</ele>
                <time>2006-12-28T11:34:46.000Z</time>
                <name>Position 218</name>
            </trkpt>
            <trkpt lon="10.514774323" lat="47.519602776">
                <ele>1602.174316</ele>
                <time>2006-12-28T11:34:48.000Z</time>
                <name>Position 219</name>
            </trkpt>
            <trkpt lon="10.514645576" lat="47.519667149">
                <ele>1606.500244</ele>
                <time>2006-12-28T11:34:59.000Z</time>
                <name>Position 220</name>
            </trkpt>
            <trkpt lon="10.514624119" lat="47.519667149">
                <ele>1606.500244</ele>
                <time>2006-12-28T11:35:00.000Z</time>
                <name>Position 221</name>
            </trkpt>
            <trkpt lon="10.514667034" lat="47.519688606">
                <ele>1608.903564</ele>
                <time>2006-12-28T11:35:09.000Z</time>
                <name>Position 222</name>
            </trkpt>
            <trkpt lon="10.514860153" lat="47.519688606">
                <ele>1612.268311</ele>
                <time>2006-12-28T11:35:28.000Z</time>
                <name>Position 223</name>
            </trkpt>
            <trkpt lon="10.514881611" lat="47.519710064">
                <ele>1616.113525</ele>
                <time>2006-12-28T11:35:41.000Z</time>
                <name>Position 224</name>
            </trkpt>
            <trkpt lon="10.514903069" lat="47.519752979">
                <ele>1619.478271</ele>
                <time>2006-12-28T11:35:49.000Z</time>
                <name>Position 225</name>
            </trkpt>
            <trkpt lon="10.514903069" lat="47.519752979">
                <ele>1619.478271</ele>
                <time>2006-12-28T11:35:50.000Z</time>
                <name>Position 226</name>
            </trkpt>
            <trkpt lon="10.514988899" lat="47.519817352">
                <ele>1622.362061</ele>
                <time>2006-12-28T11:36:05.000Z</time>
                <name>Position 227</name>
            </trkpt>
            <trkpt lon="10.51507473" lat="47.51983881">
                <ele>1622.842773</ele>
                <time>2006-12-28T11:36:35.000Z</time>
                <name>Position 228</name>
            </trkpt>
            <trkpt lon="10.515096188" lat="47.51983881">
                <ele>1626.207275</ele>
                <time>2006-12-28T11:36:50.000Z</time>
                <name>Position 229</name>
            </trkpt>
            <trkpt lon="10.515160561" lat="47.51983881">
                <ele>1629.091309</ele>
                <time>2006-12-28T11:37:12.000Z</time>
                <name>Position 230</name>
            </trkpt>
            <trkpt lon="10.515203476" lat="47.519924641">
                <ele>1631.975342</ele>
                <time>2006-12-28T11:37:36.000Z</time>
                <name>Position 231</name>
            </trkpt>
            <trkpt lon="10.515203476" lat="47.519924641">
                <ele>1632.936523</ele>
                <time>2006-12-28T11:37:38.000Z</time>
                <name>Position 232</name>
            </trkpt>
            <trkpt lon="10.515224934" lat="47.519967556">
                <ele>1636.30127</ele>
                <time>2006-12-28T11:37:48.000Z</time>
                <name>Position 233</name>
            </trkpt>
            <trkpt lon="10.515246391" lat="47.519989014">
                <ele>1639.665771</ele>
                <time>2006-12-28T11:38:00.000Z</time>
                <name>Position 234</name>
            </trkpt>
            <trkpt lon="10.515246391" lat="47.519989014">
                <ele>1639.665771</ele>
                <time>2006-12-28T11:38:01.000Z</time>
                <name>Position 235</name>
            </trkpt>
            <trkpt lon="10.515246391" lat="47.520031929">
                <ele>1643.510986</ele>
                <time>2006-12-28T11:38:16.000Z</time>
                <name>Position 236</name>
            </trkpt>
            <trkpt lon="10.515267849" lat="47.520031929">
                <ele>1644.953125</ele>
                <time>2006-12-28T11:38:17.000Z</time>
                <name>Position 237</name>
            </trkpt>
            <trkpt lon="10.515332222" lat="47.519989014">
                <ele>1645.914551</ele>
                <time>2006-12-28T11:38:19.000Z</time>
                <name>Position 238</name>
            </trkpt>
            <trkpt lon="10.515460968" lat="47.519924641">
                <ele>1646.875732</ele>
                <time>2006-12-28T11:38:27.000Z</time>
                <name>Position 239</name>
            </trkpt>
            <trkpt lon="10.515589714" lat="47.519924641">
                <ele>1648.317627</ele>
                <time>2006-12-28T11:38:58.000Z</time>
                <name>Position 240</name>
            </trkpt>
            <trkpt lon="10.515568256" lat="47.519946098">
                <ele>1651.682373</ele>
                <time>2006-12-28T11:39:13.000Z</time>
                <name>Position 241</name>
            </trkpt>
            <trkpt lon="10.515525341" lat="47.519967556">
                <ele>1655.046875</ele>
                <time>2006-12-28T11:39:26.000Z</time>
                <name>Position 242</name>
            </trkpt>
            <trkpt lon="10.51543951" lat="47.520031929">
                <ele>1655.046875</ele>
                <time>2006-12-28T11:39:57.000Z</time>
                <name>Position 243</name>
            </trkpt>
            <trkpt lon="10.515418053" lat="47.520074844">
                <ele>1657.930908</ele>
                <time>2006-12-28T11:40:10.000Z</time>
                <name>Position 244</name>
            </trkpt>
            <trkpt lon="10.515418053" lat="47.520074844">
                <ele>1657.930908</ele>
                <time>2006-12-28T11:40:11.000Z</time>
                <name>Position 245</name>
            </trkpt>
            <trkpt lon="10.515460968" lat="47.520096302">
                <ele>1661.295654</ele>
                <time>2006-12-28T11:40:23.000Z</time>
                <name>Position 246</name>
            </trkpt>
            <trkpt lon="10.51543951" lat="47.52011776">
                <ele>1665.140869</ele>
                <time>2006-12-28T11:40:32.000Z</time>
                <name>Position 247</name>
            </trkpt>
            <trkpt lon="10.515482426" lat="47.52011776">
                <ele>1665.621582</ele>
                <time>2006-12-28T11:40:37.000Z</time>
                <name>Position 248</name>
            </trkpt>
            <trkpt lon="10.515503883" lat="47.52011776">
                <ele>1666.582764</ele>
                <time>2006-12-28T11:40:39.000Z</time>
                <name>Position 249</name>
            </trkpt>
            <trkpt lon="10.51543951" lat="47.52020359">
                <ele>1668.986084</ele>
                <time>2006-12-28T11:40:52.000Z</time>
                <name>Position 250</name>
            </trkpt>
            <trkpt lon="10.515396595" lat="47.520225048">
                <ele>1672.350586</ele>
                <time>2006-12-28T11:41:07.000Z</time>
                <name>Position 251</name>
            </trkpt>
            <trkpt lon="10.515396595" lat="47.520246506">
                <ele>1674.753906</ele>
                <time>2006-12-28T11:41:24.000Z</time>
                <name>Position 252</name>
            </trkpt>
            <trkpt lon="10.515375137" lat="47.520225048">
                <ele>1677.157471</ele>
                <time>2006-12-28T11:41:50.000Z</time>
                <name>Position 253</name>
            </trkpt>
            <trkpt lon="10.515310764" lat="47.520246506">
                <ele>1680.521973</ele>
                <time>2006-12-28T11:42:00.000Z</time>
                <name>Position 254</name>
            </trkpt>
            <trkpt lon="10.515267849" lat="47.520246506">
                <ele>1682.925049</ele>
                <time>2006-12-28T11:42:04.000Z</time>
                <name>Position 255</name>
            </trkpt>
            <trkpt lon="10.515224934" lat="47.520310879">
                <ele>1685.809082</ele>
                <time>2006-12-28T11:42:17.000Z</time>
                <name>Position 256</name>
            </trkpt>
            <trkpt lon="10.515160561" lat="47.520396709">
                <ele>1688.693115</ele>
                <time>2006-12-28T11:42:32.000Z</time>
                <name>Position 257</name>
            </trkpt>
            <trkpt lon="10.515117645" lat="47.520439625">
                <ele>1691.576904</ele>
                <time>2006-12-28T11:42:45.000Z</time>
                <name>Position 258</name>
            </trkpt>
            <trkpt lon="10.515310764" lat="47.52048254">
                <ele>1694.94165</ele>
                <time>2006-12-28T11:42:59.000Z</time>
                <name>Position 259</name>
            </trkpt>
            <trkpt lon="10.515332222" lat="47.520525455">
                <ele>1696.383789</ele>
                <time>2006-12-28T11:43:13.000Z</time>
                <name>Position 260</name>
            </trkpt>
            <trkpt lon="10.515289307" lat="47.520525455">
                <ele>1699.748291</ele>
                <time>2006-12-28T11:43:22.000Z</time>
                <name>Position 261</name>
            </trkpt>
            <trkpt lon="10.515289307" lat="47.520525455">
                <ele>1699.748291</ele>
                <time>2006-12-28T11:43:23.000Z</time>
                <name>Position 262</name>
            </trkpt>
            <trkpt lon="10.515182018" lat="47.520611286">
                <ele>1702.63208</ele>
                <time>2006-12-28T11:43:40.000Z</time>
                <name>Position 263</name>
            </trkpt>
            <trkpt lon="10.515182018" lat="47.520632744">
                <ele>1703.593506</ele>
                <time>2006-12-28T11:43:42.000Z</time>
                <name>Position 264</name>
            </trkpt>
            <trkpt lon="10.515160561" lat="47.520632744">
                <ele>1705.0354</ele>
                <time>2006-12-28T11:43:44.000Z</time>
                <name>Position 265</name>
            </trkpt>
            <trkpt lon="10.515139103" lat="47.520675659">
                <ele>1708.880859</ele>
                <time>2006-12-28T11:43:57.000Z</time>
                <name>Position 266</name>
            </trkpt>
            <trkpt lon="10.515375137" lat="47.520675659">
                <ele>1708.880859</ele>
                <time>2006-12-28T11:44:10.000Z</time>
                <name>Position 267</name>
            </trkpt>
            <trkpt lon="10.515611172" lat="47.520718575">
                <ele>1712.245361</ele>
                <time>2006-12-28T11:44:31.000Z</time>
                <name>Position 268</name>
            </trkpt>
            <trkpt lon="10.515675545" lat="47.520740032">
                <ele>1714.167969</ele>
                <time>2006-12-28T11:44:38.000Z</time>
                <name>Position 269</name>
            </trkpt>
            <trkpt lon="10.515739918" lat="47.520804405">
                <ele>1718.013184</ele>
                <time>2006-12-28T11:44:54.000Z</time>
                <name>Position 270</name>
            </trkpt>
            <trkpt lon="10.515697002" lat="47.520804405">
                <ele>1718.974609</ele>
                <time>2006-12-28T11:44:58.000Z</time>
                <name>Position 271</name>
            </trkpt>
            <trkpt lon="10.515675545" lat="47.520804405">
                <ele>1720.416504</ele>
                <time>2006-12-28T11:45:03.000Z</time>
                <name>Position 272</name>
            </trkpt>
            <trkpt lon="10.515890121" lat="47.520804405">
                <ele>1723.781006</ele>
                <time>2006-12-28T11:45:18.000Z</time>
                <name>Position 273</name>
            </trkpt>
            <trkpt lon="10.515975952" lat="47.520782948">
                <ele>1724.742676</ele>
                <time>2006-12-28T11:45:30.000Z</time>
                <name>Position 274</name>
            </trkpt>
            <trkpt lon="10.516061783" lat="47.520782948">
                <ele>1727.626465</ele>
                <time>2006-12-28T11:45:42.000Z</time>
                <name>Position 275</name>
            </trkpt>
            <trkpt lon="10.516169071" lat="47.520782948">
                <ele>1730.991211</ele>
                <time>2006-12-28T11:45:51.000Z</time>
                <name>Position 276</name>
            </trkpt>
            <trkpt lon="10.516233444" lat="47.520804405">
                <ele>1731.47168</ele>
                <time>2006-12-28T11:46:04.000Z</time>
                <name>Position 277</name>
            </trkpt>
            <trkpt lon="10.51627636" lat="47.520804405">
                <ele>1732.913574</ele>
                <time>2006-12-28T11:46:08.000Z</time>
                <name>Position 278</name>
            </trkpt>
            <trkpt lon="10.516297817" lat="47.520804405">
                <ele>1734.836426</ele>
                <time>2006-12-28T11:46:12.000Z</time>
                <name>Position 279</name>
            </trkpt>
            <trkpt lon="10.516383648" lat="47.520825863">
                <ele>1738.200928</ele>
                <time>2006-12-28T11:46:32.000Z</time>
                <name>Position 280</name>
            </trkpt>
            <trkpt lon="10.516405106" lat="47.520825863">
                <ele>1739.162109</ele>
                <time>2006-12-28T11:46:34.000Z</time>
                <name>Position 281</name>
            </trkpt>
            <trkpt lon="10.516576767" lat="47.520847321">
                <ele>1742.046387</ele>
                <time>2006-12-28T11:46:48.000Z</time>
                <name>Position 282</name>
            </trkpt>
            <trkpt lon="10.516576767" lat="47.520847321">
                <ele>1742.046387</ele>
                <time>2006-12-28T11:46:49.000Z</time>
                <name>Position 283</name>
            </trkpt>
            <trkpt lon="10.51664114" lat="47.520868778">
                <ele>1743.007568</ele>
                <time>2006-12-28T11:46:55.000Z</time>
                <name>Position 284</name>
            </trkpt>
            <trkpt lon="10.516726971" lat="47.520890236">
                <ele>1744.449463</ele>
                <time>2006-12-28T11:47:28.000Z</time>
                <name>Position 285</name>
            </trkpt>
            <trkpt lon="10.516726971" lat="47.520911694">
                <ele>1746.852783</ele>
                <time>2006-12-28T11:47:43.000Z</time>
                <name>Position 286</name>
            </trkpt>
            <trkpt lon="10.51664114" lat="47.520976067">
                <ele>1750.697998</ele>
                <time>2006-12-28T11:47:57.000Z</time>
                <name>Position 287</name>
            </trkpt>
            <trkpt lon="10.516576767" lat="47.521018982">
                <ele>1753.582031</ele>
                <time>2006-12-28T11:48:06.000Z</time>
                <name>Position 288</name>
            </trkpt>
            <trkpt lon="10.516469479" lat="47.521061897">
                <ele>1754.062744</ele>
                <time>2006-12-28T11:48:13.000Z</time>
                <name>Position 289</name>
            </trkpt>
            <trkpt lon="10.516319275" lat="47.521104813">
                <ele>1757.42749</ele>
                <time>2006-12-28T11:48:24.000Z</time>
                <name>Position 290</name>
            </trkpt>
            <trkpt lon="10.516297817" lat="47.521104813">
                <ele>1756.946777</ele>
                <time>2006-12-28T11:48:25.000Z</time>
                <name>Position 291</name>
            </trkpt>
            <trkpt lon="10.515868664" lat="47.521297932">
                <ele>1760.311279</ele>
                <time>2006-12-28T11:48:51.000Z</time>
                <name>Position 292</name>
            </trkpt>
            <trkpt lon="10.515697002" lat="47.521340847">
                <ele>1763.195313</ele>
                <time>2006-12-28T11:49:53.000Z</time>
                <name>Position 293</name>
            </trkpt>
            <trkpt lon="10.515503883" lat="47.521340847">
                <ele>1766.079102</ele>
                <time>2006-12-28T11:50:10.000Z</time>
                <name>Position 294</name>
            </trkpt>
            <trkpt lon="10.515289307" lat="47.521362305">
                <ele>1769.924316</ele>
                <time>2006-12-28T11:50:27.000Z</time>
                <name>Position 295</name>
            </trkpt>
            <trkpt lon="10.515139103" lat="47.52140522">
                <ele>1770.885742</ele>
                <time>2006-12-28T11:50:53.000Z</time>
                <name>Position 296</name>
            </trkpt>
            <trkpt lon="10.515160561" lat="47.521426678">
                <ele>1774.731201</ele>
                <time>2006-12-28T11:51:07.000Z</time>
                <name>Position 297</name>
            </trkpt>
            <trkpt lon="10.515203476" lat="47.521448135">
                <ele>1778.095703</ele>
                <time>2006-12-28T11:51:25.000Z</time>
                <name>Position 298</name>
            </trkpt>
            <trkpt lon="10.515117645" lat="47.521491051">
                <ele>1781.460205</ele>
                <time>2006-12-28T11:51:39.000Z</time>
                <name>Position 299</name>
            </trkpt>
            <trkpt lon="10.51507473" lat="47.521469593">
                <ele>1784.344238</ele>
                <time>2006-12-28T11:51:55.000Z</time>
                <name>Position 300</name>
            </trkpt>
            <trkpt lon="10.515053272" lat="47.521469593">
                <ele>1786.747314</ele>
                <time>2006-12-28T11:52:03.000Z</time>
                <name>Position 301</name>
            </trkpt>
            <trkpt lon="10.515053272" lat="47.521533966">
                <ele>1790.112305</ele>
                <time>2006-12-28T11:52:26.000Z</time>
                <name>Position 302</name>
            </trkpt>
            <trkpt lon="10.515010357" lat="47.521619797">
                <ele>1793.476807</ele>
                <time>2006-12-28T11:52:57.000Z</time>
                <name>Position 303</name>
            </trkpt>
            <trkpt lon="10.515010357" lat="47.521619797">
                <ele>1793.476807</ele>
                <time>2006-12-28T11:52:58.000Z</time>
                <name>Position 304</name>
            </trkpt>
            <trkpt lon="10.514903069" lat="47.52177">
                <ele>1796.841309</ele>
                <time>2006-12-28T11:53:24.000Z</time>
                <name>Position 305</name>
            </trkpt>
            <trkpt lon="10.514881611" lat="47.52177">
                <ele>1798.283203</ele>
                <time>2006-12-28T11:53:26.000Z</time>
                <name>Position 306</name>
            </trkpt>
            <trkpt lon="10.514903069" lat="47.521791458">
                <ele>1800.206055</ele>
                <time>2006-12-28T11:53:33.000Z</time>
                <name>Position 307</name>
            </trkpt>
            <trkpt lon="10.514924526" lat="47.521834373">
                <ele>1803.089844</ele>
                <time>2006-12-28T11:53:49.000Z</time>
                <name>Position 308</name>
            </trkpt>
            <trkpt lon="10.514924526" lat="47.521834373">
                <ele>1803.089844</ele>
                <time>2006-12-28T11:53:50.000Z</time>
                <name>Position 309</name>
            </trkpt>
            <trkpt lon="10.51479578" lat="47.521877289">
                <ele>1805.493408</ele>
                <time>2006-12-28T11:54:08.000Z</time>
                <name>Position 310</name>
            </trkpt>
            <trkpt lon="10.514688492" lat="47.521898746">
                <ele>1806.45459</ele>
                <time>2006-12-28T11:54:26.000Z</time>
                <name>Position 311</name>
            </trkpt>
            <trkpt lon="10.514667034" lat="47.521898746">
                <ele>1806.935303</ele>
                <time>2006-12-28T11:54:28.000Z</time>
                <name>Position 312</name>
            </trkpt>
            <trkpt lon="10.514645576" lat="47.521898746">
                <ele>1810.299805</ele>
                <time>2006-12-28T11:54:38.000Z</time>
                <name>Position 313</name>
            </trkpt>
            <trkpt lon="10.514645576" lat="47.521920204">
                <ele>1810.299805</ele>
                <time>2006-12-28T11:54:39.000Z</time>
                <name>Position 314</name>
            </trkpt>
            <trkpt lon="10.514581203" lat="47.521920204">
                <ele>1812.222412</ele>
                <time>2006-12-28T11:54:50.000Z</time>
                <name>Position 315</name>
            </trkpt>
            <trkpt lon="10.514538288" lat="47.521898746">
                <ele>1814.14502</ele>
                <time>2006-12-28T11:54:58.000Z</time>
                <name>Position 316</name>
            </trkpt>
            <trkpt lon="10.514538288" lat="47.521898746">
                <ele>1814.14502</ele>
                <time>2006-12-28T11:54:59.000Z</time>
                <name>Position 317</name>
            </trkpt>
            <trkpt lon="10.51451683" lat="47.521898746">
                <ele>1817.509521</ele>
                <time>2006-12-28T11:55:17.000Z</time>
                <name>Position 318</name>
            </trkpt>
            <trkpt lon="10.51451683" lat="47.521898746">
                <ele>1818.95166</ele>
                <time>2006-12-28T11:55:22.000Z</time>
                <name>Position 319</name>
            </trkpt>
            <trkpt lon="10.514431" lat="47.521920204">
                <ele>1821.35498</ele>
                <time>2006-12-28T11:55:40.000Z</time>
                <name>Position 320</name>
            </trkpt>
            <trkpt lon="10.514345169" lat="47.521941662">
                <ele>1824.239014</ele>
                <time>2006-12-28T11:55:53.000Z</time>
                <name>Position 321</name>
            </trkpt>
            <trkpt lon="10.514345169" lat="47.52196312">
                <ele>1824.239014</ele>
                <time>2006-12-28T11:55:54.000Z</time>
                <name>Position 322</name>
            </trkpt>
            <trkpt lon="10.514259338" lat="47.521984577">
                <ele>1827.603516</ele>
                <time>2006-12-28T11:56:11.000Z</time>
                <name>Position 323</name>
            </trkpt>
            <trkpt lon="10.514237881" lat="47.52196312">
                <ele>1830.968262</ele>
                <time>2006-12-28T11:56:23.000Z</time>
                <name>Position 324</name>
            </trkpt>
            <trkpt lon="10.514237881" lat="47.521984577">
                <ele>1829.04541</ele>
                <time>2006-12-28T11:56:29.000Z</time>
                <name>Position 325</name>
            </trkpt>
            <trkpt lon="10.514216423" lat="47.52196312">
                <ele>1832.410156</ele>
                <time>2006-12-28T11:56:44.000Z</time>
                <name>Position 326</name>
            </trkpt>
            <trkpt lon="10.514194965" lat="47.52196312">
                <ele>1828.564941</ele>
                <time>2006-12-28T11:56:55.000Z</time>
                <name>Position 327</name>
            </trkpt>
            <trkpt lon="10.51415205" lat="47.521984577">
                <ele>1831.44873</ele>
                <time>2006-12-28T11:57:02.000Z</time>
                <name>Position 328</name>
            </trkpt>
            <trkpt lon="10.514194965" lat="47.522027493">
                <ele>1834.332764</ele>
                <time>2006-12-28T11:57:20.000Z</time>
                <name>Position 329</name>
            </trkpt>
            <trkpt lon="10.51415205" lat="47.522113323">
                <ele>1838.178223</ele>
                <time>2006-12-28T11:57:38.000Z</time>
                <name>Position 330</name>
            </trkpt>
            <trkpt lon="10.514130592" lat="47.522113323">
                <ele>1839.139404</ele>
                <time>2006-12-28T11:57:42.000Z</time>
                <name>Position 331</name>
            </trkpt>
            <trkpt lon="10.514130592" lat="47.522156239">
                <ele>1842.50415</ele>
                <time>2006-12-28T11:57:52.000Z</time>
                <name>Position 332</name>
            </trkpt>
            <trkpt lon="10.514109135" lat="47.522199154">
                <ele>1844.426514</ele>
                <time>2006-12-28T11:58:05.000Z</time>
                <name>Position 333</name>
            </trkpt>
            <trkpt lon="10.514066219" lat="47.522220612">
                <ele>1847.79126</ele>
                <time>2006-12-28T11:58:22.000Z</time>
                <name>Position 334</name>
            </trkpt>
            <trkpt lon="10.514023304" lat="47.522242069">
                <ele>1849.233154</ele>
                <time>2006-12-28T11:58:26.000Z</time>
                <name>Position 335</name>
            </trkpt>
            <trkpt lon="10.513851643" lat="47.522306442">
                <ele>1852.5979</ele>
                <time>2006-12-28T11:58:46.000Z</time>
                <name>Position 336</name>
            </trkpt>
            <trkpt lon="10.513679981" lat="47.522349358">
                <ele>1855.001221</ele>
                <time>2006-12-28T11:59:15.000Z</time>
                <name>Position 337</name>
            </trkpt>
            <trkpt lon="10.513615608" lat="47.522370815">
                <ele>1856.443115</ele>
                <time>2006-12-28T11:59:34.000Z</time>
                <name>Position 338</name>
            </trkpt>
            <trkpt lon="10.513594151" lat="47.522284985">
                <ele>1865.575684</ele>
                <time>2006-12-28T12:30:30.000Z</time>
                <name>Position 339</name>
            </trkpt>
            <trkpt lon="10.513658524" lat="47.522306442">
                <ele>1863.652832</ele>
                <time>2006-12-28T12:30:40.000Z</time>
                <name>Position 340</name>
            </trkpt>
            <trkpt lon="10.513679981" lat="47.5223279">
                <ele>1863.652832</ele>
                <time>2006-12-28T12:30:50.000Z</time>
                <name>Position 341</name>
            </trkpt>
            <trkpt lon="10.513679981" lat="47.522284985">
                <ele>1860.769043</ele>
                <time>2006-12-28T12:31:01.000Z</time>
                <name>Position 342</name>
            </trkpt>
            <trkpt lon="10.513658524" lat="47.522263527">
                <ele>1859.327148</ele>
                <time>2006-12-28T12:31:13.000Z</time>
                <name>Position 343</name>
            </trkpt>
            <trkpt lon="10.513658524" lat="47.522263527">
                <ele>1858.846436</ele>
                <time>2006-12-28T12:31:21.000Z</time>
                <name>Position 344</name>
            </trkpt>
            <trkpt lon="10.513679981" lat="47.522242069">
                <ele>1856.923828</ele>
                <time>2006-12-28T12:31:26.000Z</time>
                <name>Position 345</name>
            </trkpt>
            <trkpt lon="10.513722897" lat="47.522263527">
                <ele>1855.481934</ele>
                <time>2006-12-28T12:31:34.000Z</time>
                <name>Position 346</name>
            </trkpt>
            <trkpt lon="10.513765812" lat="47.522263527">
                <ele>1854.040039</ele>
                <time>2006-12-28T12:31:44.000Z</time>
                <name>Position 347</name>
            </trkpt>
            <trkpt lon="10.51378727" lat="47.522242069">
                <ele>1853.559326</ele>
                <time>2006-12-28T12:31:56.000Z</time>
                <name>Position 348</name>
            </trkpt>
            <trkpt lon="10.513851643" lat="47.522220612">
                <ele>1852.5979</ele>
                <time>2006-12-28T12:32:09.000Z</time>
                <name>Position 349</name>
            </trkpt>
            <trkpt lon="10.5138731" lat="47.522199154">
                <ele>1850.19458</ele>
                <time>2006-12-28T12:32:17.000Z</time>
                <name>Position 350</name>
            </trkpt>
            <trkpt lon="10.513916016" lat="47.522199154">
                <ele>1852.117188</ele>
                <time>2006-12-28T12:32:22.000Z</time>
                <name>Position 351</name>
            </trkpt>
            <trkpt lon="10.513916016" lat="47.522199154">
                <ele>1850.19458</ele>
                <time>2006-12-28T12:32:25.000Z</time>
                <name>Position 352</name>
            </trkpt>
            <trkpt lon="10.513958931" lat="47.522177696">
                <ele>1847.310547</ele>
                <time>2006-12-28T12:32:34.000Z</time>
                <name>Position 353</name>
            </trkpt>
            <trkpt lon="10.514001846" lat="47.522134781">
                <ele>1844.426514</ele>
                <time>2006-12-28T12:32:43.000Z</time>
                <name>Position 354</name>
            </trkpt>
            <trkpt lon="10.514001846" lat="47.522113323">
                <ele>1846.829834</ele>
                <time>2006-12-28T12:32:45.000Z</time>
                <name>Position 355</name>
            </trkpt>
            <trkpt lon="10.514044762" lat="47.522091866">
                <ele>1842.50415</ele>
                <time>2006-12-28T12:32:48.000Z</time>
                <name>Position 356</name>
            </trkpt>
            <trkpt lon="10.514066219" lat="47.522070408">
                <ele>1841.542725</ele>
                <time>2006-12-28T12:32:51.000Z</time>
                <name>Position 357</name>
            </trkpt>
            <trkpt lon="10.514109135" lat="47.522006035">
                <ele>1838.658936</ele>
                <time>2006-12-28T12:32:59.000Z</time>
                <name>Position 358</name>
            </trkpt>
            <trkpt lon="10.514173508" lat="47.521984577">
                <ele>1839.139404</ele>
                <time>2006-12-28T12:33:11.000Z</time>
                <name>Position 359</name>
            </trkpt>
            <trkpt lon="10.514194965" lat="47.521984577">
                <ele>1837.69751</ele>
                <time>2006-12-28T12:33:16.000Z</time>
                <name>Position 360</name>
            </trkpt>
            <trkpt lon="10.514237881" lat="47.52196312">
                <ele>1837.216797</ele>
                <time>2006-12-28T12:33:26.000Z</time>
                <name>Position 361</name>
            </trkpt>
            <trkpt lon="10.514259338" lat="47.52196312">
                <ele>1836.255615</ele>
                <time>2006-12-28T12:33:43.000Z</time>
                <name>Position 362</name>
            </trkpt>
            <trkpt lon="10.514280796" lat="47.52196312">
                <ele>1834.332764</ele>
                <time>2006-12-28T12:33:52.000Z</time>
                <name>Position 363</name>
            </trkpt>
            <trkpt lon="10.514323711" lat="47.52196312">
                <ele>1832.410156</ele>
                <time>2006-12-28T12:34:00.000Z</time>
                <name>Position 364</name>
            </trkpt>
            <trkpt lon="10.514388084" lat="47.521941662">
                <ele>1829.526123</ele>
                <time>2006-12-28T12:34:10.000Z</time>
                <name>Position 365</name>
            </trkpt>
            <trkpt lon="10.514409542" lat="47.521941662">
                <ele>1828.084229</ele>
                <time>2006-12-28T12:34:14.000Z</time>
                <name>Position 366</name>
            </trkpt>
            <trkpt lon="10.514452457" lat="47.521920204">
                <ele>1824.719727</ele>
                <time>2006-12-28T12:34:23.000Z</time>
                <name>Position 367</name>
            </trkpt>
            <trkpt lon="10.514452457" lat="47.521920204">
                <ele>1823.758301</ele>
                <time>2006-12-28T12:34:25.000Z</time>
                <name>Position 368</name>
            </trkpt>
            <trkpt lon="10.514538288" lat="47.521920204">
                <ele>1822.797119</ele>
                <time>2006-12-28T12:34:36.000Z</time>
                <name>Position 369</name>
            </trkpt>
            <trkpt lon="10.51451683" lat="47.521898746">
                <ele>1822.797119</ele>
                <time>2006-12-28T12:34:47.000Z</time>
                <name>Position 370</name>
            </trkpt>
            <trkpt lon="10.514559746" lat="47.521898746">
                <ele>1822.316406</ele>
                <time>2006-12-28T12:34:59.000Z</time>
                <name>Position 371</name>
            </trkpt>
            <trkpt lon="10.514538288" lat="47.521877289">
                <ele>1819.912842</ele>
                <time>2006-12-28T12:35:08.000Z</time>
                <name>Position 372</name>
            </trkpt>
            <trkpt lon="10.514538288" lat="47.521855831">
                <ele>1817.990234</ele>
                <time>2006-12-28T12:35:11.000Z</time>
                <name>Position 373</name>
            </trkpt>
            <trkpt lon="10.514581203" lat="47.521855831">
                <ele>1816.54834</ele>
                <time>2006-12-28T12:35:14.000Z</time>
                <name>Position 374</name>
            </trkpt>
            <trkpt lon="10.514645576" lat="47.521834373">
                <ele>1815.106445</ele>
                <time>2006-12-28T12:35:24.000Z</time>
                <name>Position 375</name>
            </trkpt>
            <trkpt lon="10.514645576" lat="47.521812916">
                <ele>1812.222412</ele>
                <time>2006-12-28T12:35:34.000Z</time>
                <name>Position 376</name>
            </trkpt>
            <trkpt lon="10.514602661" lat="47.521834373">
                <ele>1811.26123</ele>
                <time>2006-12-28T12:35:45.000Z</time>
                <name>Position 377</name>
            </trkpt>
            <trkpt lon="10.514645576" lat="47.521812916">
                <ele>1810.780518</ele>
                <time>2006-12-28T12:35:54.000Z</time>
                <name>Position 378</name>
            </trkpt>
            <trkpt lon="10.514688492" lat="47.521791458">
                <ele>1809.338623</ele>
                <time>2006-12-28T12:36:05.000Z</time>
                <name>Position 379</name>
            </trkpt>
            <trkpt lon="10.514860153" lat="47.521748543">
                <ele>1806.45459</ele>
                <time>2006-12-28T12:36:20.000Z</time>
                <name>Position 380</name>
            </trkpt>
            <trkpt lon="10.514881611" lat="47.521705627">
                <ele>1804.051514</ele>
                <time>2006-12-28T12:36:26.000Z</time>
                <name>Position 381</name>
            </trkpt>
            <trkpt lon="10.514881611" lat="47.52168417">
                <ele>1802.609131</ele>
                <time>2006-12-28T12:36:34.000Z</time>
                <name>Position 382</name>
            </trkpt>
            <trkpt lon="10.514924526" lat="47.521662712">
                <ele>1800.686523</ele>
                <time>2006-12-28T12:36:43.000Z</time>
                <name>Position 383</name>
            </trkpt>
            <trkpt lon="10.514945984" lat="47.521662712">
                <ele>1799.725342</ele>
                <time>2006-12-28T12:36:55.000Z</time>
                <name>Position 384</name>
            </trkpt>
            <trkpt lon="10.514988899" lat="47.521641254">
                <ele>1797.322021</ele>
                <time>2006-12-28T12:37:06.000Z</time>
                <name>Position 385</name>
            </trkpt>
            <trkpt lon="10.515010357" lat="47.521641254">
                <ele>1797.322021</ele>
                <time>2006-12-28T12:37:08.000Z</time>
                <name>Position 386</name>
            </trkpt>
            <trkpt lon="10.514988899" lat="47.521619797">
                <ele>1796.36084</ele>
                <time>2006-12-28T12:37:17.000Z</time>
                <name>Position 387</name>
            </trkpt>
            <trkpt lon="10.514988899" lat="47.521598339">
                <ele>1794.437988</ele>
                <time>2006-12-28T12:37:27.000Z</time>
                <name>Position 388</name>
            </trkpt>
            <trkpt lon="10.515010357" lat="47.521576881">
                <ele>1792.996094</ele>
                <time>2006-12-28T12:37:36.000Z</time>
                <name>Position 389</name>
            </trkpt>
            <trkpt lon="10.514988899" lat="47.521555424">
                <ele>1791.073486</ele>
                <time>2006-12-28T12:37:46.000Z</time>
                <name>Position 390</name>
            </trkpt>
            <trkpt lon="10.514967442" lat="47.521512508">
                <ele>1788.67041</ele>
                <time>2006-12-28T12:37:56.000Z</time>
                <name>Position 391</name>
            </trkpt>
            <trkpt lon="10.514967442" lat="47.521512508">
                <ele>1789.150879</ele>
                <time>2006-12-28T12:38:21.000Z</time>
                <name>Position 392</name>
            </trkpt>
            <trkpt lon="10.515010357" lat="47.521512508">
                <ele>1787.70874</ele>
                <time>2006-12-28T12:38:45.000Z</time>
                <name>Position 393</name>
            </trkpt>
            <trkpt lon="10.514988899" lat="47.521512508">
                <ele>1788.67041</ele>
                <time>2006-12-28T12:39:48.000Z</time>
                <name>Position 394</name>
            </trkpt>
            <trkpt lon="10.514967442" lat="47.521491051">
                <ele>1787.228027</ele>
                <time>2006-12-28T12:40:13.000Z</time>
                <name>Position 395</name>
            </trkpt>
            <trkpt lon="10.515010357" lat="47.521491051">
                <ele>1785.786133</ele>
                <time>2006-12-28T12:40:22.000Z</time>
                <name>Position 396</name>
            </trkpt>
            <trkpt lon="10.515117645" lat="47.521491051">
                <ele>1783.863525</ele>
                <time>2006-12-28T12:40:34.000Z</time>
                <name>Position 397</name>
            </trkpt>
            <trkpt lon="10.515139103" lat="47.521469593">
                <ele>1781.940918</ele>
                <time>2006-12-28T12:40:57.000Z</time>
                <name>Position 398</name>
            </trkpt>
            <trkpt lon="10.515289307" lat="47.521426678">
                <ele>1778.576416</ele>
                <time>2006-12-28T12:41:09.000Z</time>
                <name>Position 399</name>
            </trkpt>
            <trkpt lon="10.51535368" lat="47.52140522">
                <ele>1777.61499</ele>
                <time>2006-12-28T12:41:18.000Z</time>
                <name>Position 400</name>
            </trkpt>
            <trkpt lon="10.515418053" lat="47.521383762">
                <ele>1774.250488</ele>
                <time>2006-12-28T12:41:29.000Z</time>
                <name>Position 401</name>
            </trkpt>
            <trkpt lon="10.515460968" lat="47.521340847">
                <ele>1771.366211</ele>
                <time>2006-12-28T12:41:38.000Z</time>
                <name>Position 402</name>
            </trkpt>
            <trkpt lon="10.515460968" lat="47.521340847">
                <ele>1770.405029</ele>
                <time>2006-12-28T12:41:41.000Z</time>
                <name>Position 403</name>
            </trkpt>
            <trkpt lon="10.515568256" lat="47.521319389">
                <ele>1768.001709</ele>
                <time>2006-12-28T12:41:53.000Z</time>
                <name>Position 404</name>
            </trkpt>
            <trkpt lon="10.515654087" lat="47.521297932">
                <ele>1766.559814</ele>
                <time>2006-12-28T12:42:02.000Z</time>
                <name>Position 405</name>
            </trkpt>
            <trkpt lon="10.515804291" lat="47.521276474">
                <ele>1767.040527</ele>
                <time>2006-12-28T12:42:17.000Z</time>
                <name>Position 406</name>
            </trkpt>
            <trkpt lon="10.515868664" lat="47.521255016">
                <ele>1766.079102</ele>
                <time>2006-12-28T12:42:30.000Z</time>
                <name>Position 407</name>
            </trkpt>
            <trkpt lon="10.515868664" lat="47.521233559">
                <ele>1765.11792</ele>
                <time>2006-12-28T12:42:38.000Z</time>
                <name>Position 408</name>
            </trkpt>
            <trkpt lon="10.515911579" lat="47.521212101">
                <ele>1762.7146</ele>
                <time>2006-12-28T12:42:45.000Z</time>
                <name>Position 409</name>
            </trkpt>
            <trkpt lon="10.516018867" lat="47.521169186">
                <ele>1759.350098</ele>
                <time>2006-12-28T12:42:56.000Z</time>
                <name>Position 410</name>
            </trkpt>
            <trkpt lon="10.516104698" lat="47.52112627">
                <ele>1758.388672</ele>
                <time>2006-12-28T12:43:07.000Z</time>
                <name>Position 411</name>
            </trkpt>
            <trkpt lon="10.516211987" lat="47.521061897">
                <ele>1756.466064</ele>
                <time>2006-12-28T12:43:18.000Z</time>
                <name>Position 412</name>
            </trkpt>
            <trkpt lon="10.51627636" lat="47.52104044">
                <ele>1755.504639</ele>
                <time>2006-12-28T12:43:25.000Z</time>
                <name>Position 413</name>
            </trkpt>
            <trkpt lon="10.516297817" lat="47.521018982">
                <ele>1755.985107</ele>
                <time>2006-12-28T12:43:27.000Z</time>
                <name>Position 414</name>
            </trkpt>
            <trkpt lon="10.516319275" lat="47.520976067">
                <ele>1753.582031</ele>
                <time>2006-12-28T12:43:30.000Z</time>
                <name>Position 415</name>
            </trkpt>
            <trkpt lon="10.51636219" lat="47.520954609">
                <ele>1751.659424</ele>
                <time>2006-12-28T12:43:34.000Z</time>
                <name>Position 416</name>
            </trkpt>
            <trkpt lon="10.51636219" lat="47.520933151">
                <ele>1751.659424</ele>
                <time>2006-12-28T12:43:35.000Z</time>
                <name>Position 417</name>
            </trkpt>
            <trkpt lon="10.516448021" lat="47.520868778">
                <ele>1747.814209</ele>
                <time>2006-12-28T12:43:46.000Z</time>
                <name>Position 418</name>
            </trkpt>
            <trkpt lon="10.516512394" lat="47.520804405">
                <ele>1744.930176</ele>
                <time>2006-12-28T12:43:56.000Z</time>
                <name>Position 419</name>
            </trkpt>
            <trkpt lon="10.516490936" lat="47.52076149">
                <ele>1743.968994</ele>
                <time>2006-12-28T12:44:06.000Z</time>
                <name>Position 420</name>
            </trkpt>
            <trkpt lon="10.516448021" lat="47.52076149">
                <ele>1742.046387</ele>
                <time>2006-12-28T12:44:14.000Z</time>
                <name>Position 421</name>
            </trkpt>
            <trkpt lon="10.516319275" lat="47.52076149">
                <ele>1738.200928</ele>
                <time>2006-12-28T12:44:24.000Z</time>
                <name>Position 422</name>
            </trkpt>
            <trkpt lon="10.516319275" lat="47.52076149">
                <ele>1738.200928</ele>
                <time>2006-12-28T12:44:25.000Z</time>
                <name>Position 423</name>
            </trkpt>
            <trkpt lon="10.516254902" lat="47.52076149">
                <ele>1737.239502</ele>
                <time>2006-12-28T12:44:31.000Z</time>
                <name>Position 424</name>
            </trkpt>
            <trkpt lon="10.516126156" lat="47.520740032">
                <ele>1733.394287</ele>
                <time>2006-12-28T12:44:41.000Z</time>
                <name>Position 425</name>
            </trkpt>
            <trkpt lon="10.516018867" lat="47.520740032">
                <ele>1730.991211</ele>
                <time>2006-12-28T12:44:52.000Z</time>
                <name>Position 426</name>
            </trkpt>
            <trkpt lon="10.515975952" lat="47.520740032">
                <ele>1730.510498</ele>
                <time>2006-12-28T12:44:55.000Z</time>
                <name>Position 427</name>
            </trkpt>
            <trkpt lon="10.515804291" lat="47.520740032">
                <ele>1727.626465</ele>
                <time>2006-12-28T12:45:05.000Z</time>
                <name>Position 428</name>
            </trkpt>
            <trkpt lon="10.515675545" lat="47.52076149">
                <ele>1724.261963</ele>
                <time>2006-12-28T12:45:16.000Z</time>
                <name>Position 429</name>
            </trkpt>
            <trkpt lon="10.515589714" lat="47.520718575">
                <ele>1720.897217</ele>
                <time>2006-12-28T12:45:25.000Z</time>
                <name>Position 430</name>
            </trkpt>
            <trkpt lon="10.515611172" lat="47.520718575">
                <ele>1720.897217</ele>
                <time>2006-12-28T12:45:26.000Z</time>
                <name>Position 431</name>
            </trkpt>
            <trkpt lon="10.515654087" lat="47.520718575">
                <ele>1719.455322</ele>
                <time>2006-12-28T12:45:30.000Z</time>
                <name>Position 432</name>
            </trkpt>
            <trkpt lon="10.51571846" lat="47.520654202">
                <ele>1717.532471</ele>
                <time>2006-12-28T12:45:41.000Z</time>
                <name>Position 433</name>
            </trkpt>
            <trkpt lon="10.515739918" lat="47.520611286">
                <ele>1714.648682</ele>
                <time>2006-12-28T12:45:50.000Z</time>
                <name>Position 434</name>
            </trkpt>
            <trkpt lon="10.515654087" lat="47.520611286">
                <ele>1712.726074</ele>
                <time>2006-12-28T12:45:59.000Z</time>
                <name>Position 435</name>
            </trkpt>
            <trkpt lon="10.51543951" lat="47.520589828">
                <ele>1709.842041</ele>
                <time>2006-12-28T12:46:13.000Z</time>
                <name>Position 436</name>
            </trkpt>
            <trkpt lon="10.51535368" lat="47.520568371">
                <ele>1706.958008</ele>
                <time>2006-12-28T12:46:22.000Z</time>
                <name>Position 437</name>
            </trkpt>
            <trkpt lon="10.51535368" lat="47.520525455">
                <ele>1704.074219</ele>
                <time>2006-12-28T12:46:31.000Z</time>
                <name>Position 438</name>
            </trkpt>
            <trkpt lon="10.515418053" lat="47.520503998">
                <ele>1702.151367</ele>
                <time>2006-12-28T12:46:41.000Z</time>
                <name>Position 439</name>
            </trkpt>
            <trkpt lon="10.515503883" lat="47.52048254">
                <ele>1698.306152</ele>
                <time>2006-12-28T12:46:50.000Z</time>
                <name>Position 440</name>
            </trkpt>
            <trkpt lon="10.515460968" lat="47.520461082">
                <ele>1695.903076</ele>
                <time>2006-12-28T12:47:00.000Z</time>
                <name>Position 441</name>
            </trkpt>
            <trkpt lon="10.515332222" lat="47.520418167">
                <ele>1694.460938</ele>
                <time>2006-12-28T12:47:13.000Z</time>
                <name>Position 442</name>
            </trkpt>
            <trkpt lon="10.515289307" lat="47.520418167">
                <ele>1692.538574</ele>
                <time>2006-12-28T12:47:36.000Z</time>
                <name>Position 443</name>
            </trkpt>
            <trkpt lon="10.515267849" lat="47.520396709">
                <ele>1692.057861</ele>
                <time>2006-12-28T12:47:38.000Z</time>
                <name>Position 444</name>
            </trkpt>
            <trkpt lon="10.515310764" lat="47.520375252">
                <ele>1688.693115</ele>
                <time>2006-12-28T12:47:47.000Z</time>
                <name>Position 445</name>
            </trkpt>
            <trkpt lon="10.51535368" lat="47.520353794">
                <ele>1687.250977</ele>
                <time>2006-12-28T12:47:50.000Z</time>
                <name>Position 446</name>
            </trkpt>
            <trkpt lon="10.51535368" lat="47.520375252">
                <ele>1686.289795</ele>
                <time>2006-12-28T12:47:53.000Z</time>
                <name>Position 447</name>
            </trkpt>
            <trkpt lon="10.515310764" lat="47.520353794">
                <ele>1685.328369</ele>
                <time>2006-12-28T12:48:02.000Z</time>
                <name>Position 448</name>
            </trkpt>
            <trkpt lon="10.515203476" lat="47.520332336">
                <ele>1682.925049</ele>
                <time>2006-12-28T12:48:15.000Z</time>
                <name>Position 449</name>
            </trkpt>
            <trkpt lon="10.515224934" lat="47.520332336">
                <ele>1682.925049</ele>
                <time>2006-12-28T12:48:16.000Z</time>
                <name>Position 450</name>
            </trkpt>
            <trkpt lon="10.51535368" lat="47.520289421">
                <ele>1679.560547</ele>
                <time>2006-12-28T12:48:28.000Z</time>
                <name>Position 451</name>
            </trkpt>
            <trkpt lon="10.515418053" lat="47.520267963">
                <ele>1677.637939</ele>
                <time>2006-12-28T12:48:37.000Z</time>
                <name>Position 452</name>
            </trkpt>
            <trkpt lon="10.51543951" lat="47.520267963">
                <ele>1676.196045</ele>
                <time>2006-12-28T12:48:39.000Z</time>
                <name>Position 453</name>
            </trkpt>
            <trkpt lon="10.515525341" lat="47.520246506">
                <ele>1672.831299</ele>
                <time>2006-12-28T12:48:50.000Z</time>
                <name>Position 454</name>
            </trkpt>
            <trkpt lon="10.515568256" lat="47.52020359">
                <ele>1669.947266</ele>
                <time>2006-12-28T12:49:02.000Z</time>
                <name>Position 455</name>
            </trkpt>
            <trkpt lon="10.515568256" lat="47.520182133">
                <ele>1668.505371</ele>
                <time>2006-12-28T12:49:10.000Z</time>
                <name>Position 456</name>
            </trkpt>
            <trkpt lon="10.515503883" lat="47.520160675">
                <ele>1665.621582</ele>
                <time>2006-12-28T12:49:19.000Z</time>
                <name>Position 457</name>
            </trkpt>
            <trkpt lon="10.515525341" lat="47.520139217">
                <ele>1664.179443</ele>
                <time>2006-12-28T12:49:21.000Z</time>
                <name>Position 458</name>
            </trkpt>
            <trkpt lon="10.515546799" lat="47.52011776">
                <ele>1662.737549</ele>
                <time>2006-12-28T12:49:25.000Z</time>
                <name>Position 459</name>
            </trkpt>
            <trkpt lon="10.515525341" lat="47.520053387">
                <ele>1659.853271</ele>
                <time>2006-12-28T12:49:35.000Z</time>
                <name>Position 460</name>
            </trkpt>
            <trkpt lon="10.51543951" lat="47.520074844">
                <ele>1657.930908</ele>
                <time>2006-12-28T12:49:44.000Z</time>
                <name>Position 461</name>
            </trkpt>
            <trkpt lon="10.515460968" lat="47.520053387">
                <ele>1657.450195</ele>
                <time>2006-12-28T12:49:46.000Z</time>
                <name>Position 462</name>
            </trkpt>
            <trkpt lon="10.515460968" lat="47.520031929">
                <ele>1654.566162</ele>
                <time>2006-12-28T12:49:54.000Z</time>
                <name>Position 463</name>
            </trkpt>
            <trkpt lon="10.515460968" lat="47.519989014">
                <ele>1652.643555</ele>
                <time>2006-12-28T12:49:58.000Z</time>
                <name>Position 464</name>
            </trkpt>
            <trkpt lon="10.515460968" lat="47.519989014">
                <ele>1652.162842</ele>
                <time>2006-12-28T12:49:59.000Z</time>
                <name>Position 465</name>
            </trkpt>
            <trkpt lon="10.515482426" lat="47.519967556">
                <ele>1651.682373</ele>
                <time>2006-12-28T12:50:01.000Z</time>
                <name>Position 466</name>
            </trkpt>
            <trkpt lon="10.515482426" lat="47.519946098">
                <ele>1650.240479</ele>
                <time>2006-12-28T12:50:05.000Z</time>
                <name>Position 467</name>
            </trkpt>
            <trkpt lon="10.515503883" lat="47.519881725">
                <ele>1648.79834</ele>
                <time>2006-12-28T12:50:16.000Z</time>
                <name>Position 468</name>
            </trkpt>
            <trkpt lon="10.515525341" lat="47.519881725">
                <ele>1648.317627</ele>
                <time>2006-12-28T12:50:31.000Z</time>
                <name>Position 469</name>
            </trkpt>
            <trkpt lon="10.515482426" lat="47.519881725">
                <ele>1647.356445</ele>
                <time>2006-12-28T12:50:42.000Z</time>
                <name>Position 470</name>
            </trkpt>
            <trkpt lon="10.515375137" lat="47.519924641">
                <ele>1644.472412</ele>
                <time>2006-12-28T12:50:53.000Z</time>
                <name>Position 471</name>
            </trkpt>
            <trkpt lon="10.51535368" lat="47.519924641">
                <ele>1643.030273</ele>
                <time>2006-12-28T12:50:57.000Z</time>
                <name>Position 472</name>
            </trkpt>
            <trkpt lon="10.515375137" lat="47.519860268">
                <ele>1641.107666</ele>
                <time>2006-12-28T12:51:03.000Z</time>
                <name>Position 473</name>
            </trkpt>
            <trkpt lon="10.51535368" lat="47.51983881">
                <ele>1640.626953</ele>
                <time>2006-12-28T12:51:13.000Z</time>
                <name>Position 474</name>
            </trkpt>
            <trkpt lon="10.515332222" lat="47.51983881">
                <ele>1638.70459</ele>
                <time>2006-12-28T12:51:17.000Z</time>
                <name>Position 475</name>
            </trkpt>
            <trkpt lon="10.515332222" lat="47.519817352">
                <ele>1637.743164</ele>
                <time>2006-12-28T12:51:27.000Z</time>
                <name>Position 476</name>
            </trkpt>
            <trkpt lon="10.515289307" lat="47.51983881">
                <ele>1635.820557</ele>
                <time>2006-12-28T12:51:35.000Z</time>
                <name>Position 477</name>
            </trkpt>
            <trkpt lon="10.515267849" lat="47.519817352">
                <ele>1633.897949</ele>
                <time>2006-12-28T12:51:39.000Z</time>
                <name>Position 478</name>
            </trkpt>
            <trkpt lon="10.515246391" lat="47.519817352">
                <ele>1632.936523</ele>
                <time>2006-12-28T12:51:43.000Z</time>
                <name>Position 479</name>
            </trkpt>
            <trkpt lon="10.515139103" lat="47.519860268">
                <ele>1630.052734</ele>
                <time>2006-12-28T12:51:53.000Z</time>
                <name>Position 480</name>
            </trkpt>
            <trkpt lon="10.515139103" lat="47.519860268">
                <ele>1629.572021</ele>
                <time>2006-12-28T12:51:55.000Z</time>
                <name>Position 481</name>
            </trkpt>
            <trkpt lon="10.515117645" lat="47.519795895">
                <ele>1627.64917</ele>
                <time>2006-12-28T12:52:04.000Z</time>
                <name>Position 482</name>
            </trkpt>
            <trkpt lon="10.515031815" lat="47.519817352">
                <ele>1624.284668</ele>
                <time>2006-12-28T12:52:11.000Z</time>
                <name>Position 483</name>
            </trkpt>
            <trkpt lon="10.514988899" lat="47.519817352">
                <ele>1623.803955</ele>
                <time>2006-12-28T12:52:19.000Z</time>
                <name>Position 484</name>
            </trkpt>
            <trkpt lon="10.514967442" lat="47.519817352">
                <ele>1622.362061</ele>
                <time>2006-12-28T12:52:22.000Z</time>
                <name>Position 485</name>
            </trkpt>
            <trkpt lon="10.514903069" lat="47.519795895">
                <ele>1618.997559</ele>
                <time>2006-12-28T12:52:31.000Z</time>
                <name>Position 486</name>
            </trkpt>
            <trkpt lon="10.514881611" lat="47.519795895">
                <ele>1618.516846</ele>
                <time>2006-12-28T12:52:33.000Z</time>
                <name>Position 487</name>
            </trkpt>
            <trkpt lon="10.51479578" lat="47.519774437">
                <ele>1615.152344</ele>
                <time>2006-12-28T12:52:42.000Z</time>
                <name>Position 488</name>
            </trkpt>
            <trkpt lon="10.514731407" lat="47.519731522">
                <ele>1613.229736</ele>
                <time>2006-12-28T12:52:54.000Z</time>
                <name>Position 489</name>
            </trkpt>
            <trkpt lon="10.514752865" lat="47.519731522">
                <ele>1613.229736</ele>
                <time>2006-12-28T12:52:58.000Z</time>
                <name>Position 490</name>
            </trkpt>
            <trkpt lon="10.51479578" lat="47.519688606">
                <ele>1611.306885</ele>
                <time>2006-12-28T12:53:04.000Z</time>
                <name>Position 491</name>
            </trkpt>
            <trkpt lon="10.514752865" lat="47.519688606">
                <ele>1610.345459</ele>
                <time>2006-12-28T12:53:06.000Z</time>
                <name>Position 492</name>
            </trkpt>
            <trkpt lon="10.514731407" lat="47.519688606">
                <ele>1609.864746</ele>
                <time>2006-12-28T12:53:08.000Z</time>
                <name>Position 493</name>
            </trkpt>
            <trkpt lon="10.514624119" lat="47.519710064">
                <ele>1607.46167</ele>
                <time>2006-12-28T12:53:21.000Z</time>
                <name>Position 494</name>
            </trkpt>
            <trkpt lon="10.514495373" lat="47.519710064">
                <ele>1606.500244</ele>
                <time>2006-12-28T12:53:44.000Z</time>
                <name>Position 495</name>
            </trkpt>
            <trkpt lon="10.51451683" lat="47.519688606">
                <ele>1606.500244</ele>
                <time>2006-12-28T12:53:47.000Z</time>
                <name>Position 496</name>
            </trkpt>
            <trkpt lon="10.514538288" lat="47.519667149">
                <ele>1604.577637</ele>
                <time>2006-12-28T12:53:54.000Z</time>
                <name>Position 497</name>
            </trkpt>
            <trkpt lon="10.514602661" lat="47.519624233">
                <ele>1601.693848</ele>
                <time>2006-12-28T12:54:00.000Z</time>
                <name>Position 498</name>
            </trkpt>
            <trkpt lon="10.514752865" lat="47.519495487">
                <ele>1598.809814</ele>
                <time>2006-12-28T12:54:14.000Z</time>
                <name>Position 499</name>
            </trkpt>
            <trkpt lon="10.514752865" lat="47.51947403">
                <ele>1597.848633</ele>
                <time>2006-12-28T12:54:16.000Z</time>
                <name>Position 500</name>
            </trkpt>
            <trkpt lon="10.514752865" lat="47.519452572">
                <ele>1596.887207</ele>
                <time>2006-12-28T12:54:18.000Z</time>
                <name>Position 501</name>
            </trkpt>
            <trkpt lon="10.514752865" lat="47.519409657">
                <ele>1595.925781</ele>
                <time>2006-12-28T12:54:35.000Z</time>
                <name>Position 502</name>
            </trkpt>
            <trkpt lon="10.514581203" lat="47.51947403">
                <ele>1592.561279</ele>
                <time>2006-12-28T12:54:48.000Z</time>
                <name>Position 503</name>
            </trkpt>
            <trkpt lon="10.514495373" lat="47.51947403">
                <ele>1590.638428</ele>
                <time>2006-12-28T12:54:54.000Z</time>
                <name>Position 504</name>
            </trkpt>
            <trkpt lon="10.514323711" lat="47.51947403">
                <ele>1587.273926</ele>
                <time>2006-12-28T12:55:08.000Z</time>
                <name>Position 505</name>
            </trkpt>
            <trkpt lon="10.51415205" lat="47.51947403">
                <ele>1584.87085</ele>
                <time>2006-12-28T12:55:20.000Z</time>
                <name>Position 506</name>
            </trkpt>
            <trkpt lon="10.514109135" lat="47.519495487">
                <ele>1584.390137</ele>
                <time>2006-12-28T12:55:35.000Z</time>
                <name>Position 507</name>
            </trkpt>
            <trkpt lon="10.514087677" lat="47.519495487">
                <ele>1583.428711</ele>
                <time>2006-12-28T12:55:38.000Z</time>
                <name>Position 508</name>
            </trkpt>
            <trkpt lon="10.513894558" lat="47.51947403">
                <ele>1580.544922</ele>
                <time>2006-12-28T12:55:50.000Z</time>
                <name>Position 509</name>
            </trkpt>
            <trkpt lon="10.513722897" lat="47.519452572">
                <ele>1577.180176</ele>
                <time>2006-12-28T12:56:03.000Z</time>
                <name>Position 510</name>
            </trkpt>
            <trkpt lon="10.513637066" lat="47.519409657">
                <ele>1573.81543</ele>
                <time>2006-12-28T12:56:12.000Z</time>
                <name>Position 511</name>
            </trkpt>
            <trkpt lon="10.513529778" lat="47.519409657">
                <ele>1570.931641</ele>
                <time>2006-12-28T12:56:24.000Z</time>
                <name>Position 512</name>
            </trkpt>
            <trkpt lon="10.513572693" lat="47.519366741">
                <ele>1569.009033</ele>
                <time>2006-12-28T12:56:34.000Z</time>
                <name>Position 513</name>
            </trkpt>
            <trkpt lon="10.513658524" lat="47.519366741">
                <ele>1568.047607</ele>
                <time>2006-12-28T12:57:17.000Z</time>
                <name>Position 514</name>
            </trkpt>
            <trkpt lon="10.513637066" lat="47.519323826">
                <ele>1567.086426</ele>
                <time>2006-12-28T12:57:28.000Z</time>
                <name>Position 515</name>
            </trkpt>
            <trkpt lon="10.513594151" lat="47.519323826">
                <ele>1563.721436</ele>
                <time>2006-12-28T12:57:36.000Z</time>
                <name>Position 516</name>
            </trkpt>
            <trkpt lon="10.513637066" lat="47.519302368">
                <ele>1563.240967</ele>
                <time>2006-12-28T12:57:41.000Z</time>
                <name>Position 517</name>
            </trkpt>
            <trkpt lon="10.513658524" lat="47.51928091">
                <ele>1560.837646</ele>
                <time>2006-12-28T12:57:45.000Z</time>
                <name>Position 518</name>
            </trkpt>
            <trkpt lon="10.513679981" lat="47.519259453">
                <ele>1558.915039</ele>
                <time>2006-12-28T12:57:52.000Z</time>
                <name>Position 519</name>
            </trkpt>
            <trkpt lon="10.513679981" lat="47.519237995">
                <ele>1557.473145</ele>
                <time>2006-12-28T12:58:03.000Z</time>
                <name>Position 520</name>
            </trkpt>
            <trkpt lon="10.513679981" lat="47.51919508">
                <ele>1555.069824</ele>
                <time>2006-12-28T12:58:12.000Z</time>
                <name>Position 521</name>
            </trkpt>
            <trkpt lon="10.513679981" lat="47.519173622">
                <ele>1554.108643</ele>
                <time>2006-12-28T12:58:15.000Z</time>
                <name>Position 522</name>
            </trkpt>
            <trkpt lon="10.513679981" lat="47.519152164">
                <ele>1552.666504</ele>
                <time>2006-12-28T12:58:20.000Z</time>
                <name>Position 523</name>
            </trkpt>
            <trkpt lon="10.513722897" lat="47.519152164">
                <ele>1550.743896</ele>
                <time>2006-12-28T12:58:24.000Z</time>
                <name>Position 524</name>
            </trkpt>
            <trkpt lon="10.513744354" lat="47.519109249">
                <ele>1549.782715</ele>
                <time>2006-12-28T12:58:30.000Z</time>
                <name>Position 525</name>
            </trkpt>
            <trkpt lon="10.51378727" lat="47.519066334">
                <ele>1546.417969</ele>
                <time>2006-12-28T12:58:40.000Z</time>
                <name>Position 526</name>
            </trkpt>
            <trkpt lon="10.5138731" lat="47.518959045">
                <ele>1543.053223</ele>
                <time>2006-12-28T12:58:52.000Z</time>
                <name>Position 527</name>
            </trkpt>
            <trkpt lon="10.513937473" lat="47.51891613">
                <ele>1541.611328</ele>
                <time>2006-12-28T12:59:01.000Z</time>
                <name>Position 528</name>
            </trkpt>
            <trkpt lon="10.513937473" lat="47.518894672">
                <ele>1539.688721</ele>
                <time>2006-12-28T12:59:05.000Z</time>
                <name>Position 529</name>
            </trkpt>
            <trkpt lon="10.513958931" lat="47.518830299">
                <ele>1537.766113</ele>
                <time>2006-12-28T12:59:12.000Z</time>
                <name>Position 530</name>
            </trkpt>
            <trkpt lon="10.513937473" lat="47.518830299">
                <ele>1537.766113</ele>
                <time>2006-12-28T12:59:17.000Z</time>
                <name>Position 531</name>
            </trkpt>
            <trkpt lon="10.513851643" lat="47.518808842">
                <ele>1535.843506</ele>
                <time>2006-12-28T12:59:27.000Z</time>
                <name>Position 532</name>
            </trkpt>
            <trkpt lon="10.513894558" lat="47.518765926">
                <ele>1533.440186</ele>
                <time>2006-12-28T12:59:32.000Z</time>
                <name>Position 533</name>
            </trkpt>
            <trkpt lon="10.513916016" lat="47.518765926">
                <ele>1533.440186</ele>
                <time>2006-12-28T12:59:34.000Z</time>
                <name>Position 534</name>
            </trkpt>
            <trkpt lon="10.5138731" lat="47.518744469">
                <ele>1531.036865</ele>
                <time>2006-12-28T12:59:43.000Z</time>
                <name>Position 535</name>
            </trkpt>
            <trkpt lon="10.5138731" lat="47.518680096">
                <ele>1529.594727</ele>
                <time>2006-12-28T12:59:53.000Z</time>
                <name>Position 536</name>
            </trkpt>
            <trkpt lon="10.513894558" lat="47.518658638">
                <ele>1528.633545</ele>
                <time>2006-12-28T12:59:58.000Z</time>
                <name>Position 537</name>
            </trkpt>
            <trkpt lon="10.513830185" lat="47.51863718">
                <ele>1525.268799</ele>
                <time>2006-12-28T13:00:07.000Z</time>
                <name>Position 538</name>
            </trkpt>
            <trkpt lon="10.513808727" lat="47.518615723">
                <ele>1523.826904</ele>
                <time>2006-12-28T13:00:17.000Z</time>
                <name>Position 539</name>
            </trkpt>
            <trkpt lon="10.513830185" lat="47.51855135">
                <ele>1522.38501</ele>
                <time>2006-12-28T13:00:26.000Z</time>
                <name>Position 540</name>
            </trkpt>
            <trkpt lon="10.51378727" lat="47.518486977">
                <ele>1519.020508</ele>
                <time>2006-12-28T13:00:37.000Z</time>
                <name>Position 541</name>
            </trkpt>
            <trkpt lon="10.513808727" lat="47.518444061">
                <ele>1517.578369</ele>
                <time>2006-12-28T13:00:43.000Z</time>
                <name>Position 542</name>
            </trkpt>
            <trkpt lon="10.513701439" lat="47.518444061">
                <ele>1515.655762</ele>
                <time>2006-12-28T13:00:50.000Z</time>
                <name>Position 543</name>
            </trkpt>
            <trkpt lon="10.513765812" lat="47.518379688">
                <ele>1511.810547</ele>
                <time>2006-12-28T13:01:04.000Z</time>
                <name>Position 544</name>
            </trkpt>
            <trkpt lon="10.513808727" lat="47.518336773">
                <ele>1510.368408</ele>
                <time>2006-12-28T13:01:14.000Z</time>
                <name>Position 545</name>
            </trkpt>
            <trkpt lon="10.513808727" lat="47.518315315">
                <ele>1508.926514</ele>
                <time>2006-12-28T13:01:22.000Z</time>
                <name>Position 546</name>
            </trkpt>
            <trkpt lon="10.513808727" lat="47.518293858">
                <ele>1507.003906</ele>
                <time>2006-12-28T13:01:28.000Z</time>
                <name>Position 547</name>
            </trkpt>
            <trkpt lon="10.513851643" lat="47.5182724">
                <ele>1504.600586</ele>
                <time>2006-12-28T13:01:35.000Z</time>
                <name>Position 548</name>
            </trkpt>
            <trkpt lon="10.513808727" lat="47.518208027">
                <ele>1502.197266</ele>
                <time>2006-12-28T13:01:46.000Z</time>
                <name>Position 549</name>
            </trkpt>
            <trkpt lon="10.513744354" lat="47.518143654">
                <ele>1500.755371</ele>
                <time>2006-12-28T13:01:57.000Z</time>
                <name>Position 550</name>
            </trkpt>
            <trkpt lon="10.513765812" lat="47.518100739">
                <ele>1498.351807</ele>
                <time>2006-12-28T13:02:07.000Z</time>
                <name>Position 551</name>
            </trkpt>
            <trkpt lon="10.513701439" lat="47.518057823">
                <ele>1496.909912</ele>
                <time>2006-12-28T13:02:18.000Z</time>
                <name>Position 552</name>
            </trkpt>
            <trkpt lon="10.513679981" lat="47.518036366">
                <ele>1496.909912</ele>
                <time>2006-12-28T13:02:28.000Z</time>
                <name>Position 553</name>
            </trkpt>
            <trkpt lon="10.513701439" lat="47.518014908">
                <ele>1495.468018</ele>
                <time>2006-12-28T13:02:31.000Z</time>
                <name>Position 554</name>
            </trkpt>
            <trkpt lon="10.513744354" lat="47.518036366">
                <ele>1494.506592</ele>
                <time>2006-12-28T13:02:37.000Z</time>
                <name>Position 555</name>
            </trkpt>
            <trkpt lon="10.513744354" lat="47.518036366">
                <ele>1493.064697</ele>
                <time>2006-12-28T13:02:40.000Z</time>
                <name>Position 556</name>
            </trkpt>
            <trkpt lon="10.513765812" lat="47.517971992">
                <ele>1491.622803</ele>
                <time>2006-12-28T13:02:47.000Z</time>
                <name>Position 557</name>
            </trkpt>
            <trkpt lon="10.513744354" lat="47.517929077">
                <ele>1489.219482</ele>
                <time>2006-12-28T13:02:55.000Z</time>
                <name>Position 558</name>
            </trkpt>
            <trkpt lon="10.513744354" lat="47.517886162">
                <ele>1487.296875</ele>
                <time>2006-12-28T13:03:01.000Z</time>
                <name>Position 559</name>
            </trkpt>
            <trkpt lon="10.513701439" lat="47.517864704">
                <ele>1485.85498</ele>
                <time>2006-12-28T13:03:12.000Z</time>
                <name>Position 560</name>
            </trkpt>
            <trkpt lon="10.513701439" lat="47.517864704">
                <ele>1485.85498</ele>
                <time>2006-12-28T13:03:14.000Z</time>
                <name>Position 561</name>
            </trkpt>
            <trkpt lon="10.513701439" lat="47.517821789">
                <ele>1484.893799</ele>
                <time>2006-12-28T13:03:17.000Z</time>
                <name>Position 562</name>
            </trkpt>
            <trkpt lon="10.513701439" lat="47.517821789">
                <ele>1483.932129</ele>
                <time>2006-12-28T13:03:19.000Z</time>
                <name>Position 563</name>
            </trkpt>
            <trkpt lon="10.513658524" lat="47.517757416">
                <ele>1482.970703</ele>
                <time>2006-12-28T13:03:28.000Z</time>
                <name>Position 564</name>
            </trkpt>
            <trkpt lon="10.513637066" lat="47.517735958">
                <ele>1482.009521</ele>
                <time>2006-12-28T13:03:31.000Z</time>
                <name>Position 565</name>
            </trkpt>
            <trkpt lon="10.513594151" lat="47.517693043">
                <ele>1481.04834</ele>
                <time>2006-12-28T13:03:42.000Z</time>
                <name>Position 566</name>
            </trkpt>
            <trkpt lon="10.513572693" lat="47.517650127">
                <ele>1479.606201</ele>
                <time>2006-12-28T13:03:58.000Z</time>
                <name>Position 567</name>
            </trkpt>
            <trkpt lon="10.513529778" lat="47.51762867">
                <ele>1478.164307</ele>
                <time>2006-12-28T13:04:04.000Z</time>
                <name>Position 568</name>
            </trkpt>
            <trkpt lon="10.513486862" lat="47.517650127">
                <ele>1476.722412</ele>
                <time>2006-12-28T13:04:07.000Z</time>
                <name>Position 569</name>
            </trkpt>
            <trkpt lon="10.513315201" lat="47.517671585">
                <ele>1478.164307</ele>
                <time>2006-12-28T13:04:15.000Z</time>
                <name>Position 570</name>
            </trkpt>
            <trkpt lon="10.513100624" lat="47.517757416">
                <ele>1480.567627</ele>
                <time>2006-12-28T13:04:28.000Z</time>
                <name>Position 571</name>
            </trkpt>
            <trkpt lon="10.512843132" lat="47.517864704">
                <ele>1482.009521</ele>
                <time>2006-12-28T13:04:46.000Z</time>
                <name>Position 572</name>
            </trkpt>
            <trkpt lon="10.512607098" lat="47.517950535">
                <ele>1481.528809</ele>
                <time>2006-12-28T13:05:01.000Z</time>
                <name>Position 573</name>
            </trkpt>
            <trkpt lon="10.512392521" lat="47.518079281">
                <ele>1482.009521</ele>
                <time>2006-12-28T13:05:18.000Z</time>
                <name>Position 574</name>
            </trkpt>
            <trkpt lon="10.512328148" lat="47.518057823">
                <ele>1481.528809</ele>
                <time>2006-12-28T13:05:22.000Z</time>
                <name>Position 575</name>
            </trkpt>
            <trkpt lon="10.512156487" lat="47.518014908">
                <ele>1481.528809</ele>
                <time>2006-12-28T13:05:33.000Z</time>
                <name>Position 576</name>
            </trkpt>
            <trkpt lon="10.511834621" lat="47.518079281">
                <ele>1482.490234</ele>
                <time>2006-12-28T13:05:51.000Z</time>
                <name>Position 577</name>
            </trkpt>
            <trkpt lon="10.511512756" lat="47.518122196">
                <ele>1484.893799</ele>
                <time>2006-12-28T13:06:15.000Z</time>
                <name>Position 578</name>
            </trkpt>
            <trkpt lon="10.511362553" lat="47.518186569">
                <ele>1485.374268</ele>
                <time>2006-12-28T13:06:35.000Z</time>
                <name>Position 579</name>
            </trkpt>
            <trkpt lon="10.511169434" lat="47.518186569">
                <ele>1486.816162</ele>
                <time>2006-12-28T13:07:01.000Z</time>
                <name>Position 580</name>
            </trkpt>
            <trkpt lon="10.510890484" lat="47.518100739">
                <ele>1486.816162</ele>
                <time>2006-12-28T13:07:18.000Z</time>
                <name>Position 581</name>
            </trkpt>
            <trkpt lon="10.510611534" lat="47.518122196">
                <ele>1484.893799</ele>
                <time>2006-12-28T13:07:38.000Z</time>
                <name>Position 582</name>
            </trkpt>
            <trkpt lon="10.510396957" lat="47.518186569">
                <ele>1485.374268</ele>
                <time>2006-12-28T13:07:54.000Z</time>
                <name>Position 583</name>
            </trkpt>
            <trkpt lon="10.5103755" lat="47.518208027">
                <ele>1485.85498</ele>
                <time>2006-12-28T13:07:58.000Z</time>
                <name>Position 584</name>
            </trkpt>
            <trkpt lon="10.510246754" lat="47.518379688">
                <ele>1488.258301</ele>
                <time>2006-12-28T13:08:15.000Z</time>
                <name>Position 585</name>
            </trkpt>
            <trkpt lon="10.510203838" lat="47.51855135">
                <ele>1488.258301</ele>
                <time>2006-12-28T13:08:33.000Z</time>
                <name>Position 586</name>
            </trkpt>
            <trkpt lon="10.510139465" lat="47.518701553">
                <ele>1486.335693</ele>
                <time>2006-12-28T13:08:45.000Z</time>
                <name>Position 587</name>
            </trkpt>
            <trkpt lon="10.510118008" lat="47.518765926">
                <ele>1485.85498</ele>
                <time>2006-12-28T13:08:49.000Z</time>
                <name>Position 588</name>
            </trkpt>
            <trkpt lon="10.510032177" lat="47.518808842">
                <ele>1484.893799</ele>
                <time>2006-12-28T13:08:57.000Z</time>
                <name>Position 589</name>
            </trkpt>
            <trkpt lon="10.509946346" lat="47.518851757">
                <ele>1484.413086</ele>
                <time>2006-12-28T13:09:03.000Z</time>
                <name>Position 590</name>
            </trkpt>
            <trkpt lon="10.509796143" lat="47.518980503">
                <ele>1487.296875</ele>
                <time>2006-12-28T13:09:20.000Z</time>
                <name>Position 591</name>
            </trkpt>
            <trkpt lon="10.509603024" lat="47.519216537">
                <ele>1490.661377</ele>
                <time>2006-12-28T13:09:42.000Z</time>
                <name>Position 592</name>
            </trkpt>
            <trkpt lon="10.509388447" lat="47.519366741">
                <ele>1492.103516</ele>
                <time>2006-12-28T13:10:05.000Z</time>
                <name>Position 593</name>
            </trkpt>
            <trkpt lon="10.509195328" lat="47.51947403">
                <ele>1494.026123</ele>
                <time>2006-12-28T13:10:19.000Z</time>
                <name>Position 594</name>
            </trkpt>
            <trkpt lon="10.508916378" lat="47.519602776">
                <ele>1497.390625</ele>
                <time>2006-12-28T13:10:41.000Z</time>
                <name>Position 595</name>
            </trkpt>
            <trkpt lon="10.508723259" lat="47.519667149">
                <ele>1498.83252</ele>
                <time>2006-12-28T13:10:56.000Z</time>
                <name>Position 596</name>
            </trkpt>
            <trkpt lon="10.508615971" lat="47.519817352">
                <ele>1500.274902</ele>
                <time>2006-12-28T13:11:11.000Z</time>
                <name>Position 597</name>
            </trkpt>
            <trkpt lon="10.508573055" lat="47.520074844">
                <ele>1500.274902</ele>
                <time>2006-12-28T13:11:30.000Z</time>
                <name>Position 598</name>
            </trkpt>
            <trkpt lon="10.508465767" lat="47.520310879">
                <ele>1501.236084</ele>
                <time>2006-12-28T13:11:50.000Z</time>
                <name>Position 599</name>
            </trkpt>
            <trkpt lon="10.508337021" lat="47.520439625">
                <ele>1501.716797</ele>
                <time>2006-12-28T13:12:05.000Z</time>
                <name>Position 600</name>
            </trkpt>
            <trkpt lon="10.508315563" lat="47.520461082">
                <ele>1502.197266</ele>
                <time>2006-12-28T13:12:07.000Z</time>
                <name>Position 601</name>
            </trkpt>
            <trkpt lon="10.507993698" lat="47.52048254">
                <ele>1503.639404</ele>
                <time>2006-12-28T13:12:23.000Z</time>
                <name>Position 602</name>
            </trkpt>
            <trkpt lon="10.50788641" lat="47.520525455">
                <ele>1504.120117</ele>
                <time>2006-12-28T13:12:30.000Z</time>
                <name>Position 603</name>
            </trkpt>
            <trkpt lon="10.507843494" lat="47.520740032">
                <ele>1504.120117</ele>
                <time>2006-12-28T13:12:47.000Z</time>
                <name>Position 604</name>
            </trkpt>
            <trkpt lon="10.507650375" lat="47.520911694">
                <ele>1504.600586</ele>
                <time>2006-12-28T13:13:05.000Z</time>
                <name>Position 605</name>
            </trkpt>
            <trkpt lon="10.507349968" lat="47.520847321">
                <ele>1504.120117</ele>
                <time>2006-12-28T13:13:22.000Z</time>
                <name>Position 606</name>
            </trkpt>
            <trkpt lon="10.507049561" lat="47.520804405">
                <ele>1504.120117</ele>
                <time>2006-12-28T13:13:40.000Z</time>
                <name>Position 607</name>
            </trkpt>
            <trkpt lon="10.506834984" lat="47.520933151">
                <ele>1502.197266</ele>
                <time>2006-12-28T13:13:56.000Z</time>
                <name>Position 608</name>
            </trkpt>
            <trkpt lon="10.506813526" lat="47.520933151">
                <ele>1502.197266</ele>
                <time>2006-12-28T13:13:58.000Z</time>
                <name>Position 609</name>
            </trkpt>
            <trkpt lon="10.50668478" lat="47.521083355">
                <ele>1500.274902</ele>
                <time>2006-12-28T13:14:11.000Z</time>
                <name>Position 610</name>
            </trkpt>
            <trkpt lon="10.506470203" lat="47.521297932">
                <ele>1497.390625</ele>
                <time>2006-12-28T13:14:30.000Z</time>
                <name>Position 611</name>
            </trkpt>
            <trkpt lon="10.50632" lat="47.521383762">
                <ele>1496.909912</ele>
                <time>2006-12-28T13:14:43.000Z</time>
                <name>Position 612</name>
            </trkpt>
            <trkpt lon="10.506212711" lat="47.52140522">
                <ele>1496.909912</ele>
                <time>2006-12-28T13:14:57.000Z</time>
                <name>Position 613</name>
            </trkpt>
            <trkpt lon="10.506126881" lat="47.521383762">
                <ele>1497.390625</ele>
                <time>2006-12-28T13:15:35.000Z</time>
                <name>Position 614</name>
            </trkpt>
            <trkpt lon="10.505998135" lat="47.521276474">
                <ele>1497.390625</ele>
                <time>2006-12-28T13:15:48.000Z</time>
                <name>Position 615</name>
            </trkpt>
            <trkpt lon="10.5057621" lat="47.52112627">
                <ele>1494.987305</ele>
                <time>2006-12-28T13:16:05.000Z</time>
                <name>Position 616</name>
            </trkpt>
            <trkpt lon="10.505719185" lat="47.521104813">
                <ele>1494.506592</ele>
                <time>2006-12-28T13:16:09.000Z</time>
                <name>Position 617</name>
            </trkpt>
            <trkpt lon="10.505568981" lat="47.520933151">
                <ele>1492.584229</ele>
                <time>2006-12-28T13:16:24.000Z</time>
                <name>Position 618</name>
            </trkpt>
            <trkpt lon="10.505504608" lat="47.520740032">
                <ele>1490.661377</ele>
                <time>2006-12-28T13:16:40.000Z</time>
                <name>Position 619</name>
            </trkpt>
            <trkpt lon="10.505504608" lat="47.520568371">
                <ele>1490.180908</ele>
                <time>2006-12-28T13:16:56.000Z</time>
                <name>Position 620</name>
            </trkpt>
            <trkpt lon="10.505418777" lat="47.52048254">
                <ele>1489.700195</ele>
                <time>2006-12-28T13:17:16.000Z</time>
                <name>Position 621</name>
            </trkpt>
            <trkpt lon="10.505139828" lat="47.520396709">
                <ele>1487.296875</ele>
                <time>2006-12-28T13:17:32.000Z</time>
                <name>Position 622</name>
            </trkpt>
            <trkpt lon="10.504989624" lat="47.520332336">
                <ele>1485.85498</ele>
                <time>2006-12-28T13:17:41.000Z</time>
                <name>Position 623</name>
            </trkpt>
            <trkpt lon="10.50483942" lat="47.520267963">
                <ele>1483.932129</ele>
                <time>2006-12-28T13:17:52.000Z</time>
                <name>Position 624</name>
            </trkpt>
            <trkpt lon="10.504796505" lat="47.520246506">
                <ele>1483.932129</ele>
                <time>2006-12-28T13:18:07.000Z</time>
                <name>Position 625</name>
            </trkpt>
            <trkpt lon="10.504603386" lat="47.52020359">
                <ele>1482.009521</ele>
                <time>2006-12-28T13:18:18.000Z</time>
                <name>Position 626</name>
            </trkpt>
            <trkpt lon="10.504302979" lat="47.520139217">
                <ele>1478.64502</ele>
                <time>2006-12-28T13:18:33.000Z</time>
                <name>Position 627</name>
            </trkpt>
            <trkpt lon="10.503981113" lat="47.52011776">
                <ele>1476.241699</ele>
                <time>2006-12-28T13:18:50.000Z</time>
                <name>Position 628</name>
            </trkpt>
            <trkpt lon="10.503745079" lat="47.520160675">
                <ele>1474.319092</ele>
                <time>2006-12-28T13:19:01.000Z</time>
                <name>Position 629</name>
            </trkpt>
            <trkpt lon="10.503530502" lat="47.520267963">
                <ele>1471.435059</ele>
                <time>2006-12-28T13:19:14.000Z</time>
                <name>Position 630</name>
            </trkpt>
            <trkpt lon="10.50327301" lat="47.520396709">
                <ele>1468.070557</ele>
                <time>2006-12-28T13:19:30.000Z</time>
                <name>Position 631</name>
            </trkpt>
            <trkpt lon="10.503015518" lat="47.520568371">
                <ele>1465.186523</ele>
                <time>2006-12-28T13:19:48.000Z</time>
                <name>Position 632</name>
            </trkpt>
            <trkpt lon="10.502800941" lat="47.520782948">
                <ele>1462.783203</ele>
                <time>2006-12-28T13:20:07.000Z</time>
                <name>Position 633</name>
            </trkpt>
            <trkpt lon="10.502564907" lat="47.520825863">
                <ele>1461.341309</ele>
                <time>2006-12-28T13:20:20.000Z</time>
                <name>Position 634</name>
            </trkpt>
            <trkpt lon="10.502307415" lat="47.520740032">
                <ele>1459.89917</ele>
                <time>2006-12-28T13:20:35.000Z</time>
                <name>Position 635</name>
            </trkpt>
            <trkpt lon="10.502135754" lat="47.520546913">
                <ele>1458.937988</ele>
                <time>2006-12-28T13:20:51.000Z</time>
                <name>Position 636</name>
            </trkpt>
            <trkpt lon="10.501964092" lat="47.520332336">
                <ele>1457.496094</ele>
                <time>2006-12-28T13:21:11.000Z</time>
                <name>Position 637</name>
            </trkpt>
            <trkpt lon="10.5017066" lat="47.520160675">
                <ele>1454.612061</ele>
                <time>2006-12-28T13:21:30.000Z</time>
                <name>Position 638</name>
            </trkpt>
            <trkpt lon="10.501406193" lat="47.519989014">
                <ele>1453.650879</ele>
                <time>2006-12-28T13:21:48.000Z</time>
                <name>Position 639</name>
            </trkpt>
            <trkpt lon="10.500848293" lat="47.519903183">
                <ele>1452.20874</ele>
                <time>2006-12-28T13:22:19.000Z</time>
                <name>Position 640</name>
            </trkpt>
            <trkpt lon="10.500762463" lat="47.519924641">
                <ele>1451.728027</ele>
                <time>2006-12-28T13:22:23.000Z</time>
                <name>Position 641</name>
            </trkpt>
            <trkpt lon="10.500719547" lat="47.519967556">
                <ele>1451.728027</ele>
                <time>2006-12-28T13:22:27.000Z</time>
                <name>Position 642</name>
            </trkpt>
            <trkpt lon="10.500483513" lat="47.520074844">
                <ele>1452.20874</ele>
                <time>2006-12-28T13:22:42.000Z</time>
                <name>Position 643</name>
            </trkpt>
            <trkpt lon="10.500290394" lat="47.520139217">
                <ele>1451.728027</ele>
                <time>2006-12-28T13:22:54.000Z</time>
                <name>Position 644</name>
            </trkpt>
            <trkpt lon="10.500247478" lat="47.520182133">
                <ele>1452.20874</ele>
                <time>2006-12-28T13:23:07.000Z</time>
                <name>Position 645</name>
            </trkpt>
            <trkpt lon="10.500247478" lat="47.520160675">
                <ele>1451.247314</ele>
                <time>2006-12-28T13:23:17.000Z</time>
                <name>Position 646</name>
            </trkpt>
            <trkpt lon="10.500161648" lat="47.52011776">
                <ele>1450.766602</ele>
                <time>2006-12-28T13:23:24.000Z</time>
                <name>Position 647</name>
            </trkpt>
            <trkpt lon="10.500054359" lat="47.520031929">
                <ele>1450.766602</ele>
                <time>2006-12-28T13:23:36.000Z</time>
                <name>Position 648</name>
            </trkpt>
            <trkpt lon="10.500011444" lat="47.519903183">
                <ele>1451.728027</ele>
                <time>2006-12-28T13:23:46.000Z</time>
                <name>Position 649</name>
            </trkpt>
            <trkpt lon="10.499904156" lat="47.519752979">
                <ele>1452.20874</ele>
                <time>2006-12-28T13:23:59.000Z</time>
                <name>Position 650</name>
            </trkpt>
            <trkpt lon="10.499668121" lat="47.519581318">
                <ele>1452.20874</ele>
                <time>2006-12-28T13:24:16.000Z</time>
                <name>Position 651</name>
            </trkpt>
            <trkpt lon="10.499367714" lat="47.519452572">
                <ele>1452.689453</ele>
                <time>2006-12-28T13:24:35.000Z</time>
                <name>Position 652</name>
            </trkpt>
            <trkpt lon="10.499196053" lat="47.519323826">
                <ele>1451.728027</ele>
                <time>2006-12-28T13:24:48.000Z</time>
                <name>Position 653</name>
            </trkpt>
            <trkpt lon="10.499174595" lat="47.519302368">
                <ele>1452.20874</ele>
                <time>2006-12-28T13:24:59.000Z</time>
                <name>Position 654</name>
            </trkpt>
            <trkpt lon="10.499174595" lat="47.519302368">
                <ele>1451.247314</ele>
                <time>2006-12-28T13:25:08.000Z</time>
                <name>Position 655</name>
            </trkpt>
            <trkpt lon="10.49913168" lat="47.519109249">
                <ele>1448.843994</ele>
                <time>2006-12-28T13:25:23.000Z</time>
                <name>Position 656</name>
            </trkpt>
            <trkpt lon="10.49921751" lat="47.518937588">
                <ele>1445.479492</ele>
                <time>2006-12-28T13:25:37.000Z</time>
                <name>Position 657</name>
            </trkpt>
            <trkpt lon="10.499324799" lat="47.518765926">
                <ele>1443.556885</ele>
                <time>2006-12-28T13:25:52.000Z</time>
                <name>Position 658</name>
            </trkpt>
            <trkpt lon="10.49949646" lat="47.518594265">
                <ele>1440.672852</ele>
                <time>2006-12-28T13:26:08.000Z</time>
                <name>Position 659</name>
            </trkpt>
            <trkpt lon="10.499668121" lat="47.518508434">
                <ele>1439.230957</ele>
                <time>2006-12-28T13:26:22.000Z</time>
                <name>Position 660</name>
            </trkpt>
            <trkpt lon="10.499947071" lat="47.518465519">
                <ele>1436.827637</ele>
                <time>2006-12-28T13:26:38.000Z</time>
                <name>Position 661</name>
            </trkpt>
            <trkpt lon="10.499968529" lat="47.518444061">
                <ele>1436.827637</ele>
                <time>2006-12-28T13:26:40.000Z</time>
                <name>Position 662</name>
            </trkpt>
            <trkpt lon="10.500183105" lat="47.518508434">
                <ele>1434.424316</ele>
                <time>2006-12-28T13:26:57.000Z</time>
                <name>Position 663</name>
            </trkpt>
            <trkpt lon="10.500183105" lat="47.518508434">
                <ele>1434.424316</ele>
                <time>2006-12-28T13:27:35.000Z</time>
                <name>Position 664</name>
            </trkpt>
            <trkpt lon="10.500311852" lat="47.518594265">
                <ele>1433.943604</ele>
                <time>2006-12-28T13:27:53.000Z</time>
                <name>Position 665</name>
            </trkpt>
            <trkpt lon="10.500504971" lat="47.518723011">
                <ele>1431.059814</ele>
                <time>2006-12-28T13:28:08.000Z</time>
                <name>Position 666</name>
            </trkpt>
            <trkpt lon="10.500762463" lat="47.518851757">
                <ele>1427.695068</ele>
                <time>2006-12-28T13:28:24.000Z</time>
                <name>Position 667</name>
            </trkpt>
            <trkpt lon="10.501019955" lat="47.518959045">
                <ele>1424.811279</ele>
                <time>2006-12-28T13:28:40.000Z</time>
                <name>Position 668</name>
            </trkpt>
            <trkpt lon="10.501320362" lat="47.51891613">
                <ele>1423.369385</ele>
                <time>2006-12-28T13:28:57.000Z</time>
                <name>Position 669</name>
            </trkpt>
            <trkpt lon="10.501449108" lat="47.518873215">
                <ele>1421.927246</ele>
                <time>2006-12-28T13:29:05.000Z</time>
                <name>Position 670</name>
            </trkpt>
            <trkpt lon="10.5017066" lat="47.518723011">
                <ele>1419.043213</ele>
                <time>2006-12-28T13:29:23.000Z</time>
                <name>Position 671</name>
            </trkpt>
            <trkpt lon="10.501964092" lat="47.518594265">
                <ele>1415.678711</ele>
                <time>2006-12-28T13:29:40.000Z</time>
                <name>Position 672</name>
            </trkpt>
            <trkpt lon="10.502200127" lat="47.518572807">
                <ele>1412.313965</ele>
                <time>2006-12-28T13:29:52.000Z</time>
                <name>Position 673</name>
            </trkpt>
            <trkpt lon="10.502500534" lat="47.518465519">
                <ele>1409.430176</ele>
                <time>2006-12-28T13:30:09.000Z</time>
                <name>Position 674</name>
            </trkpt>
            <trkpt lon="10.502779484" lat="47.518401146">
                <ele>1406.06543</ele>
                <time>2006-12-28T13:30:25.000Z</time>
                <name>Position 675</name>
            </trkpt>
            <trkpt lon="10.503079891" lat="47.518358231">
                <ele>1403.662109</ele>
                <time>2006-12-28T13:30:42.000Z</time>
                <name>Position 676</name>
            </trkpt>
            <trkpt lon="10.503380299" lat="47.518379688">
                <ele>1400.297607</ele>
                <time>2006-12-28T13:30:59.000Z</time>
                <name>Position 677</name>
            </trkpt>
            <trkpt lon="10.503766537" lat="47.518315315">
                <ele>1398.374756</ele>
                <time>2006-12-28T13:31:19.000Z</time>
                <name>Position 678</name>
            </trkpt>
            <trkpt lon="10.504024029" lat="47.518229485">
                <ele>1395.010254</ele>
                <time>2006-12-28T13:31:34.000Z</time>
                <name>Position 679</name>
            </trkpt>
            <trkpt lon="10.504324436" lat="47.518100739">
                <ele>1392.126465</ele>
                <time>2006-12-28T13:31:52.000Z</time>
                <name>Position 680</name>
            </trkpt>
            <trkpt lon="10.50447464" lat="47.518036366">
                <ele>1389.723145</ele>
                <time>2006-12-28T13:32:01.000Z</time>
                <name>Position 681</name>
            </trkpt>
            <trkpt lon="10.504539013" lat="47.51799345">
                <ele>1388.28125</ele>
                <time>2006-12-28T13:32:05.000Z</time>
                <name>Position 682</name>
            </trkpt>
            <trkpt lon="10.504817963" lat="47.517821789">
                <ele>1385.396973</ele>
                <time>2006-12-28T13:32:24.000Z</time>
                <name>Position 683</name>
            </trkpt>
            <trkpt lon="10.505139828" lat="47.5177145">
                <ele>1382.993652</ele>
                <time>2006-12-28T13:32:43.000Z</time>
                <name>Position 684</name>
            </trkpt>
            <trkpt lon="10.505611897" lat="47.517650127">
                <ele>1380.109863</ele>
                <time>2006-12-28T13:33:06.000Z</time>
                <name>Position 685</name>
            </trkpt>
            <trkpt lon="10.505654812" lat="47.517650127">
                <ele>1380.109863</ele>
                <time>2006-12-28T13:33:09.000Z</time>
                <name>Position 686</name>
            </trkpt>
            <trkpt lon="10.505783558" lat="47.517478466">
                <ele>1379.148438</ele>
                <time>2006-12-28T13:33:24.000Z</time>
                <name>Position 687</name>
            </trkpt>
            <trkpt lon="10.505847931" lat="47.517306805">
                <ele>1378.187256</ele>
                <time>2006-12-28T13:33:38.000Z</time>
                <name>Position 688</name>
            </trkpt>
            <trkpt lon="10.505847931" lat="47.517220974">
                <ele>1377.226074</ele>
                <time>2006-12-28T13:33:44.000Z</time>
                <name>Position 689</name>
            </trkpt>
            <trkpt lon="10.505783558" lat="47.517027855">
                <ele>1374.342041</ele>
                <time>2006-12-28T13:34:00.000Z</time>
                <name>Position 690</name>
            </trkpt>
            <trkpt lon="10.505740643" lat="47.516834736">
                <ele>1370.977295</ele>
                <time>2006-12-28T13:34:14.000Z</time>
                <name>Position 691</name>
            </trkpt>
            <trkpt lon="10.505805016" lat="47.516641617">
                <ele>1369.054688</ele>
                <time>2006-12-28T13:34:30.000Z</time>
                <name>Position 692</name>
            </trkpt>
            <trkpt lon="10.5057621" lat="47.51642704">
                <ele>1367.13208</ele>
                <time>2006-12-28T13:34:46.000Z</time>
                <name>Position 693</name>
            </trkpt>
            <trkpt lon="10.505611897" lat="47.516191006">
                <ele>1365.690186</ele>
                <time>2006-12-28T13:35:05.000Z</time>
                <name>Position 694</name>
            </trkpt>
            <trkpt lon="10.505547523" lat="47.515997887">
                <ele>1363.286865</ele>
                <time>2006-12-28T13:35:19.000Z</time>
                <name>Position 695</name>
            </trkpt>
            <trkpt lon="10.505633354" lat="47.51578331">
                <ele>1360.883545</ele>
                <time>2006-12-28T13:35:37.000Z</time>
                <name>Position 696</name>
            </trkpt>
            <trkpt lon="10.5057621" lat="47.515590191">
                <ele>1358.960938</ele>
                <time>2006-12-28T13:35:53.000Z</time>
                <name>Position 697</name>
            </trkpt>
            <trkpt lon="10.505783558" lat="47.515482903">
                <ele>1358.480225</ele>
                <time>2006-12-28T13:36:05.000Z</time>
                <name>Position 698</name>
            </trkpt>
            <trkpt lon="10.505869389" lat="47.515375614">
                <ele>1357.519043</ele>
                <time>2006-12-28T13:36:15.000Z</time>
                <name>Position 699</name>
            </trkpt>
            <trkpt lon="10.505955219" lat="47.515246868">
                <ele>1356.076904</ele>
                <time>2006-12-28T13:36:29.000Z</time>
                <name>Position 700</name>
            </trkpt>
            <trkpt lon="10.506105423" lat="47.515010834">
                <ele>1353.192871</ele>
                <time>2006-12-28T13:36:48.000Z</time>
                <name>Position 701</name>
            </trkpt>
            <trkpt lon="10.506126881" lat="47.514967918">
                <ele>1353.192871</ele>
                <time>2006-12-28T13:36:51.000Z</time>
                <name>Position 702</name>
            </trkpt>
            <trkpt lon="10.506255627" lat="47.514796257">
                <ele>1351.750977</ele>
                <time>2006-12-28T13:37:07.000Z</time>
                <name>Position 703</name>
            </trkpt>
            <trkpt lon="10.506470203" lat="47.514560223">
                <ele>1349.347656</ele>
                <time>2006-12-28T13:37:27.000Z</time>
                <name>Position 704</name>
            </trkpt>
            <trkpt lon="10.506706238" lat="47.514388561">
                <ele>1347.425049</ele>
                <time>2006-12-28T13:37:45.000Z</time>
                <name>Position 705</name>
            </trkpt>
            <trkpt lon="10.506877899" lat="47.5142169">
                <ele>1344.541016</ele>
                <time>2006-12-28T13:38:01.000Z</time>
                <name>Position 706</name>
            </trkpt>
            <trkpt lon="10.506985188" lat="47.514023781">
                <ele>1341.657227</ele>
                <time>2006-12-28T13:38:16.000Z</time>
                <name>Position 707</name>
            </trkpt>
            <trkpt lon="10.507264137" lat="47.513830662">
                <ele>1338.29248</ele>
                <time>2006-12-28T13:38:37.000Z</time>
                <name>Position 708</name>
            </trkpt>
            <trkpt lon="10.507521629" lat="47.513744831">
                <ele>1335.408447</ele>
                <time>2006-12-28T13:38:52.000Z</time>
                <name>Position 709</name>
            </trkpt>
            <trkpt lon="10.507757664" lat="47.513594627">
                <ele>1334.447266</ele>
                <time>2006-12-28T13:39:08.000Z</time>
                <name>Position 710</name>
            </trkpt>
            <trkpt lon="10.507907867" lat="47.513444424">
                <ele>1332.524658</ele>
                <time>2006-12-28T13:39:22.000Z</time>
                <name>Position 711</name>
            </trkpt>
            <trkpt lon="10.507993698" lat="47.513315678">
                <ele>1329.159912</ele>
                <time>2006-12-28T13:39:32.000Z</time>
                <name>Position 712</name>
            </trkpt>
            <trkpt lon="10.508100986" lat="47.513144016">
                <ele>1326.276123</ele>
                <time>2006-12-28T13:39:50.000Z</time>
                <name>Position 713</name>
            </trkpt>
            <trkpt lon="10.508165359" lat="47.513058186">
                <ele>1325.79541</ele>
                <time>2006-12-28T13:40:09.000Z</time>
                <name>Position 714</name>
            </trkpt>
            <trkpt lon="10.508422852" lat="47.512907982">
                <ele>1323.39209</ele>
                <time>2006-12-28T13:40:25.000Z</time>
                <name>Position 715</name>
            </trkpt>
            <trkpt lon="10.508701801" lat="47.512800694">
                <ele>1320.027344</ele>
                <time>2006-12-28T13:40:41.000Z</time>
                <name>Position 716</name>
            </trkpt>
            <trkpt lon="10.509066582" lat="47.51265049">
                <ele>1317.624023</ele>
                <time>2006-12-28T13:41:01.000Z</time>
                <name>Position 717</name>
            </trkpt>
            <trkpt lon="10.509324074" lat="47.512543201">
                <ele>1314.259521</ele>
                <time>2006-12-28T13:41:15.000Z</time>
                <name>Position 718</name>
            </trkpt>
            <trkpt lon="10.509538651" lat="47.512457371">
                <ele>1311.856445</ele>
                <time>2006-12-28T13:41:28.000Z</time>
                <name>Position 719</name>
            </trkpt>
            <trkpt lon="10.509881973" lat="47.512328625">
                <ele>1309.453125</ele>
                <time>2006-12-28T13:41:48.000Z</time>
                <name>Position 720</name>
            </trkpt>
            <trkpt lon="10.510160923" lat="47.512285709">
                <ele>1306.568848</ele>
                <time>2006-12-28T13:42:03.000Z</time>
                <name>Position 721</name>
            </trkpt>
            <trkpt lon="10.510439873" lat="47.512221336">
                <ele>1304.165771</ele>
                <time>2006-12-28T13:42:17.000Z</time>
                <name>Position 722</name>
            </trkpt>
            <trkpt lon="10.510654449" lat="47.512135506">
                <ele>1302.24292</ele>
                <time>2006-12-28T13:42:30.000Z</time>
                <name>Position 723</name>
            </trkpt>
            <trkpt lon="10.510976315" lat="47.512049675">
                <ele>1300.801025</ele>
                <time>2006-12-28T13:42:47.000Z</time>
                <name>Position 724</name>
            </trkpt>
            <trkpt lon="10.511190891" lat="47.511963844">
                <ele>1298.397705</ele>
                <time>2006-12-28T13:42:59.000Z</time>
                <name>Position 725</name>
            </trkpt>
            <trkpt lon="10.511405468" lat="47.511878014">
                <ele>1295.033203</ele>
                <time>2006-12-28T13:43:12.000Z</time>
                <name>Position 726</name>
            </trkpt>
            <trkpt lon="10.511727333" lat="47.511792183">
                <ele>1294.072021</ele>
                <time>2006-12-28T13:43:29.000Z</time>
                <name>Position 727</name>
            </trkpt>
            <trkpt lon="10.512049198" lat="47.51172781">
                <ele>1292.149414</ele>
                <time>2006-12-28T13:43:47.000Z</time>
                <name>Position 728</name>
            </trkpt>
            <trkpt lon="10.512199402" lat="47.511684895">
                <ele>1292.149414</ele>
                <time>2006-12-28T13:43:55.000Z</time>
                <name>Position 729</name>
            </trkpt>
            <trkpt lon="10.512478352" lat="47.511749268">
                <ele>1288.784668</ele>
                <time>2006-12-28T13:44:11.000Z</time>
                <name>Position 730</name>
            </trkpt>
            <trkpt lon="10.512714386" lat="47.511835098">
                <ele>1285.900635</ele>
                <time>2006-12-28T13:44:24.000Z</time>
                <name>Position 731</name>
            </trkpt>
            <trkpt lon="10.512821674" lat="47.511856556">
                <ele>1284.939453</ele>
                <time>2006-12-28T13:44:32.000Z</time>
                <name>Position 732</name>
            </trkpt>
            <trkpt lon="10.512843132" lat="47.511835098">
                <ele>1283.497314</ele>
                <time>2006-12-28T13:44:38.000Z</time>
                <name>Position 733</name>
            </trkpt>
            <trkpt lon="10.512843132" lat="47.511792183">
                <ele>1282.536133</ele>
                <time>2006-12-28T13:44:41.000Z</time>
                <name>Position 734</name>
            </trkpt>
            <trkpt lon="10.51286459" lat="47.511770725">
                <ele>1281.094238</ele>
                <time>2006-12-28T13:44:45.000Z</time>
                <name>Position 735</name>
            </trkpt>
            <trkpt lon="10.51286459" lat="47.511684895">
                <ele>1280.132813</ele>
                <time>2006-12-28T13:44:52.000Z</time>
                <name>Position 736</name>
            </trkpt>
            <trkpt lon="10.512886047" lat="47.511620522">
                <ele>1279.6521</ele>
                <time>2006-12-28T13:44:57.000Z</time>
                <name>Position 737</name>
            </trkpt>
            <trkpt lon="10.512907505" lat="47.511599064">
                <ele>1278.210205</ele>
                <time>2006-12-28T13:45:01.000Z</time>
                <name>Position 738</name>
            </trkpt>
            <trkpt lon="10.51295042" lat="47.511556149">
                <ele>1276.768311</ele>
                <time>2006-12-28T13:45:05.000Z</time>
                <name>Position 739</name>
            </trkpt>
            <trkpt lon="10.513014793" lat="47.511491776">
                <ele>1276.287598</ele>
                <time>2006-12-28T13:45:12.000Z</time>
                <name>Position 740</name>
            </trkpt>
            <trkpt lon="10.513036251" lat="47.51144886">
                <ele>1276.287598</ele>
                <time>2006-12-28T13:45:16.000Z</time>
                <name>Position 741</name>
            </trkpt>
            <trkpt lon="10.512993336" lat="47.511277199">
                <ele>1272.922852</ele>
                <time>2006-12-28T13:45:32.000Z</time>
                <name>Position 742</name>
            </trkpt>
            <trkpt lon="10.513122082" lat="47.511298656">
                <ele>1270.038818</ele>
                <time>2006-12-28T13:45:43.000Z</time>
                <name>Position 743</name>
            </trkpt>
            <trkpt lon="10.513379574" lat="47.51144886">
                <ele>1267.635498</ele>
                <time>2006-12-28T13:46:01.000Z</time>
                <name>Position 744</name>
            </trkpt>
            <trkpt lon="10.513658524" lat="47.511405945">
                <ele>1265.232422</ele>
                <time>2006-12-28T13:46:18.000Z</time>
                <name>Position 745</name>
            </trkpt>
            <trkpt lon="10.513916016" lat="47.511298656">
                <ele>1261.86792</ele>
                <time>2006-12-28T13:46:35.000Z</time>
                <name>Position 746</name>
            </trkpt>
            <trkpt lon="10.513980389" lat="47.511277199">
                <ele>1260.425781</ele>
                <time>2006-12-28T13:46:39.000Z</time>
                <name>Position 747</name>
            </trkpt>
            <trkpt lon="10.514194965" lat="47.511298656">
                <ele>1259.464355</ele>
                <time>2006-12-28T13:46:50.000Z</time>
                <name>Position 748</name>
            </trkpt>
            <trkpt lon="10.514452457" lat="47.511191368">
                <ele>1256.099609</ele>
                <time>2006-12-28T13:47:06.000Z</time>
                <name>Position 749</name>
            </trkpt>
            <trkpt lon="10.51479578" lat="47.511126995">
                <ele>1254.177246</ele>
                <time>2006-12-28T13:47:25.000Z</time>
                <name>Position 750</name>
            </trkpt>
            <trkpt lon="10.51479578" lat="47.51108408">
                <ele>1252.735107</ele>
                <time>2006-12-28T13:47:29.000Z</time>
                <name>Position 751</name>
            </trkpt>
            <trkpt lon="10.514731407" lat="47.510976791">
                <ele>1250.332031</ele>
                <time>2006-12-28T13:47:41.000Z</time>
                <name>Position 752</name>
            </trkpt>
            <trkpt lon="10.514709949" lat="47.510890961">
                <ele>1247.447998</ele>
                <time>2006-12-28T13:47:49.000Z</time>
                <name>Position 753</name>
            </trkpt>
            <trkpt lon="10.514709949" lat="47.510783672">
                <ele>1246.006104</ele>
                <time>2006-12-28T13:48:01.000Z</time>
                <name>Position 754</name>
            </trkpt>
            <trkpt lon="10.514709949" lat="47.510783672">
                <ele>1245.044678</ele>
                <time>2006-12-28T13:48:03.000Z</time>
                <name>Position 755</name>
            </trkpt>
            <trkpt lon="10.514731407" lat="47.510654926">
                <ele>1242.160645</ele>
                <time>2006-12-28T13:48:17.000Z</time>
                <name>Position 756</name>
            </trkpt>
            <trkpt lon="10.514731407" lat="47.510654926">
                <ele>1242.160645</ele>
                <time>2006-12-28T13:48:18.000Z</time>
                <name>Position 757</name>
            </trkpt>
            <trkpt lon="10.514731407" lat="47.510590553">
                <ele>1241.679932</ele>
                <time>2006-12-28T13:48:29.000Z</time>
                <name>Position 758</name>
            </trkpt>
            <trkpt lon="10.514731407" lat="47.510547638">
                <ele>1240.238037</ele>
                <time>2006-12-28T13:48:35.000Z</time>
                <name>Position 759</name>
            </trkpt>
            <trkpt lon="10.514731407" lat="47.510504723">
                <ele>1238.31543</ele>
                <time>2006-12-28T13:48:41.000Z</time>
                <name>Position 760</name>
            </trkpt>
            <trkpt lon="10.514774323" lat="47.510461807">
                <ele>1236.873291</ele>
                <time>2006-12-28T13:48:44.000Z</time>
                <name>Position 761</name>
            </trkpt>
            <trkpt lon="10.514774323" lat="47.510461807">
                <ele>1236.392822</ele>
                <time>2006-12-28T13:48:45.000Z</time>
                <name>Position 762</name>
            </trkpt>
            <trkpt lon="10.514817238" lat="47.510354519">
                <ele>1233.989502</ele>
                <time>2006-12-28T13:48:58.000Z</time>
                <name>Position 763</name>
            </trkpt>
            <trkpt lon="10.514903069" lat="47.510182858">
                <ele>1230.625</ele>
                <time>2006-12-28T13:49:14.000Z</time>
                <name>Position 764</name>
            </trkpt>
            <trkpt lon="10.514924526" lat="47.5101614">
                <ele>1229.663574</ele>
                <time>2006-12-28T13:49:17.000Z</time>
                <name>Position 765</name>
            </trkpt>
            <trkpt lon="10.514967442" lat="47.510075569">
                <ele>1227.740723</ele>
                <time>2006-12-28T13:49:28.000Z</time>
                <name>Position 766</name>
            </trkpt>
            <trkpt lon="10.514988899" lat="47.510075569">
                <ele>1227.740723</ele>
                <time>2006-12-28T13:49:30.000Z</time>
                <name>Position 767</name>
            </trkpt>
            <trkpt lon="10.515031815" lat="47.510011196">
                <ele>1226.779541</ele>
                <time>2006-12-28T13:49:40.000Z</time>
                <name>Position 768</name>
            </trkpt>
            <trkpt lon="10.515096188" lat="47.509946823">
                <ele>1224.376221</ele>
                <time>2006-12-28T13:49:51.000Z</time>
                <name>Position 769</name>
            </trkpt>
            <trkpt lon="10.515182018" lat="47.509818077">
                <ele>1220.531006</ele>
                <time>2006-12-28T13:50:05.000Z</time>
                <name>Position 770</name>
            </trkpt>
            <trkpt lon="10.515224934" lat="47.509796619">
                <ele>1220.050293</ele>
                <time>2006-12-28T13:50:07.000Z</time>
                <name>Position 771</name>
            </trkpt>
            <trkpt lon="10.515224934" lat="47.509753704">
                <ele>1218.608398</ele>
                <time>2006-12-28T13:50:12.000Z</time>
                <name>Position 772</name>
            </trkpt>
            <trkpt lon="10.515203476" lat="47.509667873">
                <ele>1217.166504</ele>
                <time>2006-12-28T13:50:22.000Z</time>
                <name>Position 773</name>
            </trkpt>
            <trkpt lon="10.515246391" lat="47.509474754">
                <ele>1212.359863</ele>
                <time>2006-12-28T13:50:37.000Z</time>
                <name>Position 774</name>
            </trkpt>
            <trkpt lon="10.515246391" lat="47.509453297">
                <ele>1212.359863</ele>
                <time>2006-12-28T13:50:38.000Z</time>
                <name>Position 775</name>
            </trkpt>
            <trkpt lon="10.515289307" lat="47.509303093">
                <ele>1209.956299</ele>
                <time>2006-12-28T13:50:50.000Z</time>
                <name>Position 776</name>
            </trkpt>
            <trkpt lon="10.515289307" lat="47.509217262">
                <ele>1208.033936</ele>
                <time>2006-12-28T13:50:59.000Z</time>
                <name>Position 777</name>
            </trkpt>
            <trkpt lon="10.515332222" lat="47.509131432">
                <ele>1205.149902</ele>
                <time>2006-12-28T13:51:06.000Z</time>
                <name>Position 778</name>
            </trkpt>
            <trkpt lon="10.515375137" lat="47.509088516">
                <ele>1204.669189</ele>
                <time>2006-12-28T13:51:15.000Z</time>
                <name>Position 779</name>
            </trkpt>
            <trkpt lon="10.515460968" lat="47.508981228">
                <ele>1203.227295</ele>
                <time>2006-12-28T13:51:29.000Z</time>
                <name>Position 780</name>
            </trkpt>
            <trkpt lon="10.515460968" lat="47.508895397">
                <ele>1199.862793</ele>
                <time>2006-12-28T13:51:41.000Z</time>
                <name>Position 781</name>
            </trkpt>
            <trkpt lon="10.515482426" lat="47.508831024">
                <ele>1196.498291</ele>
                <time>2006-12-28T13:51:50.000Z</time>
                <name>Position 782</name>
            </trkpt>
            <trkpt lon="10.515482426" lat="47.508831024">
                <ele>1196.017578</ele>
                <time>2006-12-28T13:51:51.000Z</time>
                <name>Position 783</name>
            </trkpt>
            <trkpt lon="10.515503883" lat="47.508766651">
                <ele>1195.536621</ele>
                <time>2006-12-28T13:51:56.000Z</time>
                <name>Position 784</name>
            </trkpt>
            <trkpt lon="10.515482426" lat="47.508745193">
                <ele>1195.055908</ele>
                <time>2006-12-28T13:51:59.000Z</time>
                <name>Position 785</name>
            </trkpt>
            <trkpt lon="10.515503883" lat="47.508659363">
                <ele>1194.094727</ele>
                <time>2006-12-28T13:52:13.000Z</time>
                <name>Position 786</name>
            </trkpt>
            <trkpt lon="10.515503883" lat="47.508637905">
                <ele>1193.614014</ele>
                <time>2006-12-28T13:52:20.000Z</time>
                <name>Position 787</name>
            </trkpt>
            <trkpt lon="10.515482426" lat="47.508509159">
                <ele>1190.249512</ele>
                <time>2006-12-28T13:52:34.000Z</time>
                <name>Position 788</name>
            </trkpt>
            <trkpt lon="10.515482426" lat="47.508487701">
                <ele>1190.249512</ele>
                <time>2006-12-28T13:52:36.000Z</time>
                <name>Position 789</name>
            </trkpt>
            <trkpt lon="10.515525341" lat="47.508444786">
                <ele>1188.807617</ele>
                <time>2006-12-28T13:52:40.000Z</time>
                <name>Position 790</name>
            </trkpt>
            <trkpt lon="10.515525341" lat="47.508380413">
                <ele>1187.365479</ele>
                <time>2006-12-28T13:52:45.000Z</time>
                <name>Position 791</name>
            </trkpt>
            <trkpt lon="10.515589714" lat="47.508294582">
                <ele>1184.962402</ele>
                <time>2006-12-28T13:52:55.000Z</time>
                <name>Position 792</name>
            </trkpt>
            <trkpt lon="10.515611172" lat="47.508273125">
                <ele>1184.481689</ele>
                <time>2006-12-28T13:52:58.000Z</time>
                <name>Position 793</name>
            </trkpt>
            <trkpt lon="10.515611172" lat="47.508208752">
                <ele>1182.559082</ele>
                <time>2006-12-28T13:53:04.000Z</time>
                <name>Position 794</name>
            </trkpt>
            <trkpt lon="10.515632629" lat="47.508122921">
                <ele>1179.674805</ele>
                <time>2006-12-28T13:53:13.000Z</time>
                <name>Position 795</name>
            </trkpt>
            <trkpt lon="10.515654087" lat="47.508080006">
                <ele>1178.713623</ele>
                <time>2006-12-28T13:53:17.000Z</time>
                <name>Position 796</name>
            </trkpt>
            <trkpt lon="10.515632629" lat="47.50803709">
                <ele>1176.791016</ele>
                <time>2006-12-28T13:53:22.000Z</time>
                <name>Position 797</name>
            </trkpt>
            <trkpt lon="10.515632629" lat="47.50803709">
                <ele>1175.82959</ele>
                <time>2006-12-28T13:53:24.000Z</time>
                <name>Position 798</name>
            </trkpt>
            <trkpt lon="10.515654087" lat="47.50795126">
                <ele>1175.348877</ele>
                <time>2006-12-28T13:53:30.000Z</time>
                <name>Position 799</name>
            </trkpt>
            <trkpt lon="10.515654087" lat="47.507929802">
                <ele>1174.868408</ele>
                <time>2006-12-28T13:53:32.000Z</time>
                <name>Position 800</name>
            </trkpt>
            <trkpt lon="10.51571846" lat="47.507736683">
                <ele>1171.503662</ele>
                <time>2006-12-28T13:53:49.000Z</time>
                <name>Position 801</name>
            </trkpt>
            <trkpt lon="10.51571846" lat="47.507715225">
                <ele>1171.023193</ele>
                <time>2006-12-28T13:53:51.000Z</time>
                <name>Position 802</name>
            </trkpt>
            <trkpt lon="10.515761375" lat="47.507607937">
                <ele>1168.619873</ele>
                <time>2006-12-28T13:53:59.000Z</time>
                <name>Position 803</name>
            </trkpt>
            <trkpt lon="10.515804291" lat="47.507500648">
                <ele>1165.255371</ele>
                <time>2006-12-28T13:54:08.000Z</time>
                <name>Position 804</name>
            </trkpt>
            <trkpt lon="10.515825748" lat="47.507436275">
                <ele>1164.293945</ele>
                <time>2006-12-28T13:54:19.000Z</time>
                <name>Position 805</name>
            </trkpt>
            <trkpt lon="10.515825748" lat="47.507307529">
                <ele>1161.409912</ele>
                <time>2006-12-28T13:54:31.000Z</time>
                <name>Position 806</name>
            </trkpt>
            <trkpt lon="10.515847206" lat="47.507264614">
                <ele>1160.929199</ele>
                <time>2006-12-28T13:54:39.000Z</time>
                <name>Position 807</name>
            </trkpt>
            <trkpt lon="10.515911579" lat="47.507178783">
                <ele>1158.525879</ele>
                <time>2006-12-28T13:54:48.000Z</time>
                <name>Position 808</name>
            </trkpt>
            <trkpt lon="10.515954494" lat="47.507135868">
                <ele>1156.122559</ele>
                <time>2006-12-28T13:55:02.000Z</time>
                <name>Position 809</name>
            </trkpt>
            <trkpt lon="10.51599741" lat="47.50711441">
                <ele>1155.161377</ele>
                <time>2006-12-28T13:55:05.000Z</time>
                <name>Position 810</name>
            </trkpt>
            <trkpt lon="10.516147614" lat="47.507071495">
                <ele>1151.316162</ele>
                <time>2006-12-28T13:55:15.000Z</time>
                <name>Position 811</name>
            </trkpt>
            <trkpt lon="10.516254902" lat="47.507007122">
                <ele>1150.835449</ele>
                <time>2006-12-28T13:55:25.000Z</time>
                <name>Position 812</name>
            </trkpt>
            <trkpt lon="10.516319275" lat="47.506985664">
                <ele>1149.393555</ele>
                <time>2006-12-28T13:55:30.000Z</time>
                <name>Position 813</name>
            </trkpt>
            <trkpt lon="10.516448021" lat="47.506942749">
                <ele>1146.509521</ele>
                <time>2006-12-28T13:55:41.000Z</time>
                <name>Position 814</name>
            </trkpt>
            <trkpt lon="10.516490936" lat="47.506942749">
                <ele>1146.028809</ele>
                <time>2006-12-28T13:55:46.000Z</time>
                <name>Position 815</name>
            </trkpt>
            <trkpt lon="10.516555309" lat="47.506921291">
                <ele>1144.106201</ele>
                <time>2006-12-28T13:55:50.000Z</time>
                <name>Position 816</name>
            </trkpt>
            <trkpt lon="10.516662598" lat="47.506899834">
                <ele>1141.222168</ele>
                <time>2006-12-28T13:55:58.000Z</time>
                <name>Position 817</name>
            </trkpt>
            <trkpt lon="10.516812801" lat="47.506921291">
                <ele>1138.819092</ele>
                <time>2006-12-28T13:56:08.000Z</time>
                <name>Position 818</name>
            </trkpt>
            <trkpt lon="10.51692009" lat="47.506921291">
                <ele>1135.935059</ele>
                <time>2006-12-28T13:56:16.000Z</time>
                <name>Position 819</name>
            </trkpt>
        </trkseg>
    </trk>
</gpx>
